<?xml version="1.0" encoding="UTF-8" standalone="no" ?>
<gpx xmlns="http://www.topografix.com/GPX/1/1" xmlns:xsi="http://www.w3.org/2001/XMLSchema-instance" xsi:schemaLocation="http://www.topografix.com/GPX/1/1 http://www.topografix.com/GPX/1/1/gpx.xsd" version="1.1" creator="VisuGPX - https://www.visugpx.com">
  <metadata>
    <name>Sentiers Mouansois</name>
    <desc><![CDATA[Session cross-country Argile-plan Sarrain et Bois de la Mourrachonne]]></desc>
  </metadata>
  <trk>
    <name><![CDATA[Sentiers mouans]]></name>
    <trkseg>
      <trkpt lat="43.61609" lon="6.96417">
        <ele>108.9</ele>
        <time>2012-03-10T08:41:13Z</time>
      </trkpt>
      <trkpt lat="43.61609" lon="6.96417">
        <ele>108</ele>
        <time>2012-03-10T08:41:14Z</time>
      </trkpt>
      <trkpt lat="43.61599" lon="6.9643">
        <ele>108.4</ele>
        <time>2012-03-10T08:43:11Z</time>
      </trkpt>
      <trkpt lat="43.61587" lon="6.96441">
        <ele>109.2</ele>
        <time>2012-03-10T08:43:17Z</time>
      </trkpt>
      <trkpt lat="43.61594" lon="6.96459">
        <ele>107.7</ele>
        <time>2012-03-10T08:43:24Z</time>
      </trkpt>
      <trkpt lat="43.61605" lon="6.96475">
        <ele>111.8</ele>
        <time>2012-03-10T08:43:29Z</time>
      </trkpt>
      <trkpt lat="43.61614" lon="6.96492">
        <ele>113.6</ele>
        <time>2012-03-10T08:43:35Z</time>
      </trkpt>
      <trkpt lat="43.61622" lon="6.96508">
        <ele>115.3</ele>
        <time>2012-03-10T08:43:40Z</time>
      </trkpt>
      <trkpt lat="43.61628" lon="6.96525">
        <ele>113.1</ele>
        <time>2012-03-10T08:43:45Z</time>
      </trkpt>
      <trkpt lat="43.61637" lon="6.96541">
        <ele>117.3</ele>
        <time>2012-03-10T08:43:51Z</time>
      </trkpt>
      <trkpt lat="43.61646" lon="6.96559">
        <ele>116.7</ele>
        <time>2012-03-10T08:43:56Z</time>
      </trkpt>
      <trkpt lat="43.61654" lon="6.96574">
        <ele>118.5</ele>
        <time>2012-03-10T08:44:02Z</time>
      </trkpt>
      <trkpt lat="43.61661" lon="6.96591">
        <ele>118</ele>
        <time>2012-03-10T08:44:08Z</time>
      </trkpt>
      <trkpt lat="43.6167" lon="6.9661">
        <ele>120</ele>
        <time>2012-03-10T08:44:14Z</time>
      </trkpt>
      <trkpt lat="43.61685" lon="6.96651">
        <ele>115.1</ele>
        <time>2012-03-10T08:44:23Z</time>
      </trkpt>
      <trkpt lat="43.61702" lon="6.96683">
        <ele>114.5</ele>
        <time>2012-03-10T08:44:31Z</time>
      </trkpt>
      <trkpt lat="43.61713" lon="6.96699">
        <ele>118.1</ele>
        <time>2012-03-10T08:44:36Z</time>
      </trkpt>
      <trkpt lat="43.61725" lon="6.96712">
        <ele>119.7</ele>
        <time>2012-03-10T08:44:41Z</time>
      </trkpt>
      <trkpt lat="43.61735" lon="6.96729">
        <ele>119.7</ele>
        <time>2012-03-10T08:44:46Z</time>
      </trkpt>
      <trkpt lat="43.61746" lon="6.96747">
        <ele>120.2</ele>
        <time>2012-03-10T08:44:51Z</time>
      </trkpt>
      <trkpt lat="43.61754" lon="6.96762">
        <ele>119.9</ele>
        <time>2012-03-10T08:44:55Z</time>
      </trkpt>
      <trkpt lat="43.61763" lon="6.96779">
        <ele>119.5</ele>
        <time>2012-03-10T08:44:59Z</time>
      </trkpt>
      <trkpt lat="43.61771" lon="6.96798">
        <ele>121.4</ele>
        <time>2012-03-10T08:45:04Z</time>
      </trkpt>
      <trkpt lat="43.61779" lon="6.96816">
        <ele>121.1</ele>
        <time>2012-03-10T08:45:09Z</time>
      </trkpt>
      <trkpt lat="43.61787" lon="6.96834">
        <ele>120</ele>
        <time>2012-03-10T08:45:13Z</time>
      </trkpt>
      <trkpt lat="43.61806" lon="6.96867">
        <ele>121.7</ele>
        <time>2012-03-10T08:45:21Z</time>
      </trkpt>
      <trkpt lat="43.61816" lon="6.96883">
        <ele>122.8</ele>
        <time>2012-03-10T08:45:25Z</time>
      </trkpt>
      <trkpt lat="43.61833" lon="6.96918">
        <ele>122.5</ele>
        <time>2012-03-10T08:45:33Z</time>
      </trkpt>
      <trkpt lat="43.61814" lon="6.96946">
        <ele>121.4</ele>
        <time>2012-03-10T08:45:41Z</time>
      </trkpt>
      <trkpt lat="43.61811" lon="6.96968">
        <ele>121</ele>
        <time>2012-03-10T08:45:46Z</time>
      </trkpt>
      <trkpt lat="43.6182" lon="6.96986">
        <ele>121.7</ele>
        <time>2012-03-10T08:45:50Z</time>
      </trkpt>
      <trkpt lat="43.61831" lon="6.97001">
        <ele>122.1</ele>
        <time>2012-03-10T08:45:54Z</time>
      </trkpt>
      <trkpt lat="43.61842" lon="6.97016">
        <ele>121.3</ele>
        <time>2012-03-10T08:46:00Z</time>
      </trkpt>
      <trkpt lat="43.61853" lon="6.97032">
        <ele>124.1</ele>
        <time>2012-03-10T08:46:05Z</time>
      </trkpt>
      <trkpt lat="43.61875" lon="6.97063">
        <ele>125.5</ele>
        <time>2012-03-10T08:46:14Z</time>
      </trkpt>
      <trkpt lat="43.61886" lon="6.97079">
        <ele>126.8</ele>
        <time>2012-03-10T08:46:18Z</time>
      </trkpt>
      <trkpt lat="43.61908" lon="6.97109">
        <ele>125.8</ele>
        <time>2012-03-10T08:46:26Z</time>
      </trkpt>
      <trkpt lat="43.61919" lon="6.97123">
        <ele>125</ele>
        <time>2012-03-10T08:46:30Z</time>
      </trkpt>
      <trkpt lat="43.61918" lon="6.97157">
        <ele>119</ele>
        <time>2012-03-10T08:46:37Z</time>
      </trkpt>
      <trkpt lat="43.61893" lon="6.97179">
        <ele>125.5</ele>
        <time>2012-03-10T08:46:44Z</time>
      </trkpt>
      <trkpt lat="43.61866" lon="6.97199">
        <ele>119.8</ele>
        <time>2012-03-10T08:46:50Z</time>
      </trkpt>
      <trkpt lat="43.61842" lon="6.9722">
        <ele>120.2</ele>
        <time>2012-03-10T08:46:56Z</time>
      </trkpt>
      <trkpt lat="43.61815" lon="6.97239">
        <ele>119.1</ele>
        <time>2012-03-10T08:47:02Z</time>
      </trkpt>
      <trkpt lat="43.61786" lon="6.97257">
        <ele>119.5</ele>
        <time>2012-03-10T08:47:09Z</time>
      </trkpt>
      <trkpt lat="43.61774" lon="6.97266">
        <ele>122.2</ele>
        <time>2012-03-10T08:47:13Z</time>
      </trkpt>
      <trkpt lat="43.61761" lon="6.97272">
        <ele>122.1</ele>
        <time>2012-03-10T08:47:18Z</time>
      </trkpt>
      <trkpt lat="43.61768" lon="6.97293">
        <ele>121.2</ele>
        <time>2012-03-10T08:47:28Z</time>
      </trkpt>
      <trkpt lat="43.61759" lon="6.9731">
        <ele>123.3</ele>
        <time>2012-03-10T08:47:35Z</time>
      </trkpt>
      <trkpt lat="43.61748" lon="6.97322">
        <ele>125.1</ele>
        <time>2012-03-10T08:47:42Z</time>
      </trkpt>
      <trkpt lat="43.61733" lon="6.97328">
        <ele>126.3</ele>
        <time>2012-03-10T08:53:25Z</time>
      </trkpt>
      <trkpt lat="43.61705" lon="6.97338">
        <ele>126.5</ele>
        <time>2012-03-10T08:53:35Z</time>
      </trkpt>
      <trkpt lat="43.61695" lon="6.97323">
        <ele>122.7</ele>
        <time>2012-03-10T08:53:46Z</time>
      </trkpt>
      <trkpt lat="43.6168" lon="6.97329">
        <ele>122.2</ele>
        <time>2012-03-10T08:53:51Z</time>
      </trkpt>
      <trkpt lat="43.6165" lon="6.97339">
        <ele>117.3</ele>
        <time>2012-03-10T08:54:00Z</time>
      </trkpt>
      <trkpt lat="43.61628" lon="6.97306">
        <ele>115.9</ele>
        <time>2012-03-10T08:54:06Z</time>
      </trkpt>
      <trkpt lat="43.61605" lon="6.97267">
        <ele>116</ele>
        <time>2012-03-10T08:54:12Z</time>
      </trkpt>
      <trkpt lat="43.61582" lon="6.97229">
        <ele>111</ele>
        <time>2012-03-10T08:54:18Z</time>
      </trkpt>
      <trkpt lat="43.61557" lon="6.97191">
        <ele>111.4</ele>
        <time>2012-03-10T08:54:24Z</time>
      </trkpt>
      <trkpt lat="43.61529" lon="6.97151">
        <ele>109.7</ele>
        <time>2012-03-10T08:54:30Z</time>
      </trkpt>
      <trkpt lat="43.61507" lon="6.97123">
        <ele>111.6</ele>
        <time>2012-03-10T08:54:34Z</time>
      </trkpt>
      <trkpt lat="43.61484" lon="6.97096">
        <ele>110.8</ele>
        <time>2012-03-10T08:54:38Z</time>
      </trkpt>
      <trkpt lat="43.61461" lon="6.97073">
        <ele>110</ele>
        <time>2012-03-10T08:54:42Z</time>
      </trkpt>
      <trkpt lat="43.61439" lon="6.97051">
        <ele>111.2</ele>
        <time>2012-03-10T08:54:46Z</time>
      </trkpt>
      <trkpt lat="43.61414" lon="6.9702">
        <ele>107.5</ele>
        <time>2012-03-10T08:54:51Z</time>
      </trkpt>
      <trkpt lat="43.61381" lon="6.96975">
        <ele>109.7</ele>
        <time>2012-03-10T08:54:58Z</time>
      </trkpt>
      <trkpt lat="43.6135" lon="6.96947">
        <ele>109</ele>
        <time>2012-03-10T08:55:04Z</time>
      </trkpt>
      <trkpt lat="43.61344" lon="6.96903">
        <ele>108</ele>
        <time>2012-03-10T08:55:09Z</time>
      </trkpt>
      <trkpt lat="43.61344" lon="6.96859">
        <ele>106.5</ele>
        <time>2012-03-10T08:55:15Z</time>
      </trkpt>
      <trkpt lat="43.61355" lon="6.96844">
        <ele>106.9</ele>
        <time>2012-03-10T08:55:20Z</time>
      </trkpt>
      <trkpt lat="43.61368" lon="6.96807">
        <ele>107.6</ele>
        <time>2012-03-10T08:55:26Z</time>
      </trkpt>
      <trkpt lat="43.61382" lon="6.96765">
        <ele>107.8</ele>
        <time>2012-03-10T08:55:34Z</time>
      </trkpt>
      <trkpt lat="43.61394" lon="6.96725">
        <ele>101.7</ele>
        <time>2012-03-10T08:55:41Z</time>
      </trkpt>
      <trkpt lat="43.61408" lon="6.96676">
        <ele>99.5</ele>
        <time>2012-03-10T08:55:47Z</time>
      </trkpt>
      <trkpt lat="43.61426" lon="6.96631">
        <ele>100.3</ele>
        <time>2012-03-10T08:55:53Z</time>
      </trkpt>
      <trkpt lat="43.61437" lon="6.96587">
        <ele>100</ele>
        <time>2012-03-10T08:55:58Z</time>
      </trkpt>
      <trkpt lat="43.61432" lon="6.96546">
        <ele>98.6</ele>
        <time>2012-03-10T08:56:02Z</time>
      </trkpt>
      <trkpt lat="43.61424" lon="6.96505">
        <ele>97.6</ele>
        <time>2012-03-10T08:56:06Z</time>
      </trkpt>
      <trkpt lat="43.61418" lon="6.96444">
        <ele>97.9</ele>
        <time>2012-03-10T08:56:12Z</time>
      </trkpt>
      <trkpt lat="43.61411" lon="6.96384">
        <ele>97.3</ele>
        <time>2012-03-10T08:56:18Z</time>
      </trkpt>
      <trkpt lat="43.61403" lon="6.96346">
        <ele>99.4</ele>
        <time>2012-03-10T08:56:22Z</time>
      </trkpt>
      <trkpt lat="43.61385" lon="6.96307">
        <ele>96.7</ele>
        <time>2012-03-10T08:56:27Z</time>
      </trkpt>
      <trkpt lat="43.61401" lon="6.96244">
        <ele>112</ele>
        <time>2012-03-10T08:56:33Z</time>
      </trkpt>
      <trkpt lat="43.61415" lon="6.96209">
        <ele>115.3</ele>
        <time>2012-03-10T08:56:37Z</time>
      </trkpt>
      <trkpt lat="43.61435" lon="6.96168">
        <ele>102.3</ele>
        <time>2012-03-10T08:56:43Z</time>
      </trkpt>
      <trkpt lat="43.61453" lon="6.96126">
        <ele>97.5</ele>
        <time>2012-03-10T08:56:49Z</time>
      </trkpt>
      <trkpt lat="43.6147" lon="6.96085">
        <ele>95.6</ele>
        <time>2012-03-10T08:56:54Z</time>
      </trkpt>
      <trkpt lat="43.61488" lon="6.96033">
        <ele>95.7</ele>
        <time>2012-03-10T08:57:00Z</time>
      </trkpt>
      <trkpt lat="43.61497" lon="6.95986">
        <ele>93.6</ele>
        <time>2012-03-10T08:57:06Z</time>
      </trkpt>
      <trkpt lat="43.61506" lon="6.95941">
        <ele>91.1</ele>
        <time>2012-03-10T08:57:12Z</time>
      </trkpt>
      <trkpt lat="43.6152" lon="6.95885">
        <ele>86.2</ele>
        <time>2012-03-10T08:57:18Z</time>
      </trkpt>
      <trkpt lat="43.61538" lon="6.95822">
        <ele>86.5</ele>
        <time>2012-03-10T08:57:25Z</time>
      </trkpt>
      <trkpt lat="43.61546" lon="6.95783">
        <ele>87.3</ele>
        <time>2012-03-10T08:57:31Z</time>
      </trkpt>
      <trkpt lat="43.61553" lon="6.95738">
        <ele>99.8</ele>
        <time>2012-03-10T08:57:37Z</time>
      </trkpt>
      <trkpt lat="43.61557" lon="6.95692">
        <ele>101</ele>
        <time>2012-03-10T08:57:43Z</time>
      </trkpt>
      <trkpt lat="43.61559" lon="6.95652">
        <ele>98.5</ele>
        <time>2012-03-10T08:57:49Z</time>
      </trkpt>
      <trkpt lat="43.61572" lon="6.95608">
        <ele>102.3</ele>
        <time>2012-03-10T08:57:57Z</time>
      </trkpt>
      <trkpt lat="43.61593" lon="6.95579">
        <ele>111.2</ele>
        <time>2012-03-10T08:58:03Z</time>
      </trkpt>
      <trkpt lat="43.61607" lon="6.95565">
        <ele>109.3</ele>
        <time>2012-03-10T08:58:07Z</time>
      </trkpt>
      <trkpt lat="43.61628" lon="6.95536">
        <ele>104.5</ele>
        <time>2012-03-10T08:58:15Z</time>
      </trkpt>
      <trkpt lat="43.61645" lon="6.95502">
        <ele>103.5</ele>
        <time>2012-03-10T08:58:22Z</time>
      </trkpt>
      <trkpt lat="43.61651" lon="6.95478">
        <ele>104.1</ele>
        <time>2012-03-10T08:58:26Z</time>
      </trkpt>
      <trkpt lat="43.61646" lon="6.9544">
        <ele>103.2</ele>
        <time>2012-03-10T08:58:32Z</time>
      </trkpt>
      <trkpt lat="43.61643" lon="6.95459">
        <ele>105.2</ele>
        <time>2012-03-10T08:58:40Z</time>
      </trkpt>
      <trkpt lat="43.61632" lon="6.95471">
        <ele>100.5</ele>
        <time>2012-03-10T09:02:36Z</time>
      </trkpt>
      <trkpt lat="43.61629" lon="6.95453">
        <ele>101.2</ele>
        <time>2012-03-10T09:10:26Z</time>
      </trkpt>
      <trkpt lat="43.6163" lon="6.95434">
        <ele>102.8</ele>
        <time>2012-03-10T09:10:34Z</time>
      </trkpt>
      <trkpt lat="43.6163" lon="6.95415">
        <ele>109</ele>
        <time>2012-03-10T09:10:42Z</time>
      </trkpt>
      <trkpt lat="43.61627" lon="6.95395">
        <ele>112.1</ele>
        <time>2012-03-10T09:10:49Z</time>
      </trkpt>
      <trkpt lat="43.61623" lon="6.95373">
        <ele>107.4</ele>
        <time>2012-03-10T09:10:56Z</time>
      </trkpt>
      <trkpt lat="43.61617" lon="6.95356">
        <ele>106.1</ele>
        <time>2012-03-10T09:11:02Z</time>
      </trkpt>
      <trkpt lat="43.61607" lon="6.95338">
        <ele>111.3</ele>
        <time>2012-03-10T09:11:09Z</time>
      </trkpt>
      <trkpt lat="43.61598" lon="6.95323">
        <ele>115.3</ele>
        <time>2012-03-10T09:11:15Z</time>
      </trkpt>
      <trkpt lat="43.61589" lon="6.95307">
        <ele>115.1</ele>
        <time>2012-03-10T09:11:21Z</time>
      </trkpt>
      <trkpt lat="43.61579" lon="6.95293">
        <ele>112.7</ele>
        <time>2012-03-10T09:11:27Z</time>
      </trkpt>
      <trkpt lat="43.61569" lon="6.95279">
        <ele>110.7</ele>
        <time>2012-03-10T09:11:32Z</time>
      </trkpt>
      <trkpt lat="43.61557" lon="6.95266">
        <ele>115.3</ele>
        <time>2012-03-10T09:11:38Z</time>
      </trkpt>
      <trkpt lat="43.61546" lon="6.95255">
        <ele>115.5</ele>
        <time>2012-03-10T09:11:43Z</time>
      </trkpt>
      <trkpt lat="43.61533" lon="6.95248">
        <ele>124</ele>
        <time>2012-03-10T09:11:49Z</time>
      </trkpt>
      <trkpt lat="43.61519" lon="6.95241">
        <ele>123.4</ele>
        <time>2012-03-10T09:11:54Z</time>
      </trkpt>
      <trkpt lat="43.61505" lon="6.95236">
        <ele>122</ele>
        <time>2012-03-10T09:11:59Z</time>
      </trkpt>
      <trkpt lat="43.6149" lon="6.95236">
        <ele>124.7</ele>
        <time>2012-03-10T09:12:05Z</time>
      </trkpt>
      <trkpt lat="43.61477" lon="6.95246">
        <ele>123.9</ele>
        <time>2012-03-10T09:12:10Z</time>
      </trkpt>
      <trkpt lat="43.61466" lon="6.95262">
        <ele>123.2</ele>
        <time>2012-03-10T09:12:16Z</time>
      </trkpt>
      <trkpt lat="43.61455" lon="6.95279">
        <ele>122.3</ele>
        <time>2012-03-10T09:12:21Z</time>
      </trkpt>
      <trkpt lat="43.61446" lon="6.95295">
        <ele>120.9</ele>
        <time>2012-03-10T09:12:26Z</time>
      </trkpt>
      <trkpt lat="43.61436" lon="6.95311">
        <ele>121.1</ele>
        <time>2012-03-10T09:12:31Z</time>
      </trkpt>
      <trkpt lat="43.61424" lon="6.95325">
        <ele>119.6</ele>
        <time>2012-03-10T09:12:36Z</time>
      </trkpt>
      <trkpt lat="43.61412" lon="6.95316">
        <ele>122.3</ele>
        <time>2012-03-10T09:12:42Z</time>
      </trkpt>
      <trkpt lat="43.61411" lon="6.95294">
        <ele>124.7</ele>
        <time>2012-03-10T09:12:48Z</time>
      </trkpt>
      <trkpt lat="43.61409" lon="6.95272">
        <ele>129.9</ele>
        <time>2012-03-10T09:12:54Z</time>
      </trkpt>
      <trkpt lat="43.61409" lon="6.95251">
        <ele>129.6</ele>
        <time>2012-03-10T09:12:59Z</time>
      </trkpt>
      <trkpt lat="43.61408" lon="6.95231">
        <ele>127.1</ele>
        <time>2012-03-10T09:13:05Z</time>
      </trkpt>
      <trkpt lat="43.61406" lon="6.9521">
        <ele>126.5</ele>
        <time>2012-03-10T09:13:12Z</time>
      </trkpt>
      <trkpt lat="43.61404" lon="6.9519">
        <ele>129.7</ele>
        <time>2012-03-10T09:13:17Z</time>
      </trkpt>
      <trkpt lat="43.61398" lon="6.9517">
        <ele>129.6</ele>
        <time>2012-03-10T09:13:25Z</time>
      </trkpt>
      <trkpt lat="43.61393" lon="6.95152">
        <ele>129.2</ele>
        <time>2012-03-10T09:13:31Z</time>
      </trkpt>
      <trkpt lat="43.61385" lon="6.95133">
        <ele>135.3</ele>
        <time>2012-03-10T09:13:38Z</time>
      </trkpt>
      <trkpt lat="43.61376" lon="6.95116">
        <ele>132.5</ele>
        <time>2012-03-10T09:13:44Z</time>
      </trkpt>
      <trkpt lat="43.61369" lon="6.95099">
        <ele>136.2</ele>
        <time>2012-03-10T09:13:51Z</time>
      </trkpt>
      <trkpt lat="43.61357" lon="6.95085">
        <ele>136.1</ele>
        <time>2012-03-10T09:13:59Z</time>
      </trkpt>
      <trkpt lat="43.61344" lon="6.95074">
        <ele>140.6</ele>
        <time>2012-03-10T09:14:06Z</time>
      </trkpt>
      <trkpt lat="43.61331" lon="6.95064">
        <ele>144.7</ele>
        <time>2012-03-10T09:14:13Z</time>
      </trkpt>
      <trkpt lat="43.61317" lon="6.95054">
        <ele>148.2</ele>
        <time>2012-03-10T09:14:21Z</time>
      </trkpt>
      <trkpt lat="43.61305" lon="6.95044">
        <ele>145.6</ele>
        <time>2012-03-10T09:14:27Z</time>
      </trkpt>
      <trkpt lat="43.61293" lon="6.95031">
        <ele>141.8</ele>
        <time>2012-03-10T09:14:34Z</time>
      </trkpt>
      <trkpt lat="43.61281" lon="6.95019">
        <ele>146.1</ele>
        <time>2012-03-10T09:14:40Z</time>
      </trkpt>
      <trkpt lat="43.61268" lon="6.9501">
        <ele>145.1</ele>
        <time>2012-03-10T09:14:45Z</time>
      </trkpt>
      <trkpt lat="43.61255" lon="6.95003">
        <ele>150.2</ele>
        <time>2012-03-10T09:14:54Z</time>
      </trkpt>
      <trkpt lat="43.61241" lon="6.94998">
        <ele>146.8</ele>
        <time>2012-03-10T09:15:00Z</time>
      </trkpt>
      <trkpt lat="43.61227" lon="6.94991">
        <ele>152.1</ele>
        <time>2012-03-10T09:15:07Z</time>
      </trkpt>
      <trkpt lat="43.61212" lon="6.94987">
        <ele>148</ele>
        <time>2012-03-10T09:15:14Z</time>
      </trkpt>
      <trkpt lat="43.61198" lon="6.94978">
        <ele>152.2</ele>
        <time>2012-03-10T09:16:15Z</time>
      </trkpt>
      <trkpt lat="43.61187" lon="6.94966">
        <ele>150.4</ele>
        <time>2012-03-10T09:16:22Z</time>
      </trkpt>
      <trkpt lat="43.61188" lon="6.94947">
        <ele>149.1</ele>
        <time>2012-03-10T09:16:26Z</time>
      </trkpt>
      <trkpt lat="43.61201" lon="6.94906">
        <ele>146.1</ele>
        <time>2012-03-10T09:16:31Z</time>
      </trkpt>
      <trkpt lat="43.61206" lon="6.9486">
        <ele>139.1</ele>
        <time>2012-03-10T09:16:37Z</time>
      </trkpt>
      <trkpt lat="43.61207" lon="6.94839">
        <ele>130.4</ele>
        <time>2012-03-10T09:16:41Z</time>
      </trkpt>
      <trkpt lat="43.61214" lon="6.9482">
        <ele>127.1</ele>
        <time>2012-03-10T09:16:46Z</time>
      </trkpt>
      <trkpt lat="43.61218" lon="6.948">
        <ele>123.6</ele>
        <time>2012-03-10T09:16:51Z</time>
      </trkpt>
      <trkpt lat="43.61215" lon="6.94777">
        <ele>122.8</ele>
        <time>2012-03-10T09:16:57Z</time>
      </trkpt>
      <trkpt lat="43.61214" lon="6.94758">
        <ele>119.3</ele>
        <time>2012-03-10T09:17:03Z</time>
      </trkpt>
      <trkpt lat="43.61225" lon="6.94741">
        <ele>112.6</ele>
        <time>2012-03-10T09:17:09Z</time>
      </trkpt>
      <trkpt lat="43.61255" lon="6.94725">
        <ele>106</ele>
        <time>2012-03-10T09:17:17Z</time>
      </trkpt>
      <trkpt lat="43.61246" lon="6.94708">
        <ele>102.7</ele>
        <time>2012-03-10T09:20:03Z</time>
      </trkpt>
      <trkpt lat="43.61245" lon="6.94667">
        <ele>93.9</ele>
        <time>2012-03-10T09:20:12Z</time>
      </trkpt>
      <trkpt lat="43.61216" lon="6.94642">
        <ele>85.7</ele>
        <time>2012-03-10T09:20:20Z</time>
      </trkpt>
      <trkpt lat="43.61189" lon="6.94601">
        <ele>80.6</ele>
        <time>2012-03-10T09:20:27Z</time>
      </trkpt>
      <trkpt lat="43.61207" lon="6.94559">
        <ele>80.3</ele>
        <time>2012-03-10T09:20:32Z</time>
      </trkpt>
      <trkpt lat="43.61234" lon="6.94532">
        <ele>68.4</ele>
        <time>2012-03-10T09:20:41Z</time>
      </trkpt>
      <trkpt lat="43.61223" lon="6.94518">
        <ele>73.1</ele>
        <time>2012-03-10T09:22:05Z</time>
      </trkpt>
      <trkpt lat="43.61209" lon="6.94511">
        <ele>71.7</ele>
        <time>2012-03-10T09:22:10Z</time>
      </trkpt>
      <trkpt lat="43.61197" lon="6.94502">
        <ele>66.9</ele>
        <time>2012-03-10T09:22:14Z</time>
      </trkpt>
      <trkpt lat="43.61168" lon="6.94486">
        <ele>65.6</ele>
        <time>2012-03-10T09:22:22Z</time>
      </trkpt>
      <trkpt lat="43.61153" lon="6.94477">
        <ele>59.8</ele>
        <time>2012-03-10T09:22:26Z</time>
      </trkpt>
      <trkpt lat="43.61142" lon="6.94464">
        <ele>59.4</ele>
        <time>2012-03-10T09:22:31Z</time>
      </trkpt>
      <trkpt lat="43.61129" lon="6.94451">
        <ele>59.3</ele>
        <time>2012-03-10T09:22:35Z</time>
      </trkpt>
      <trkpt lat="43.61102" lon="6.94433">
        <ele>66.9</ele>
        <time>2012-03-10T09:22:42Z</time>
      </trkpt>
      <trkpt lat="43.61088" lon="6.9442">
        <ele>66.9</ele>
        <time>2012-03-10T09:22:46Z</time>
      </trkpt>
      <trkpt lat="43.61061" lon="6.94407">
        <ele>72.4</ele>
        <time>2012-03-10T09:22:55Z</time>
      </trkpt>
      <trkpt lat="43.61048" lon="6.94401">
        <ele>76</ele>
        <time>2012-03-10T09:23:16Z</time>
      </trkpt>
      <trkpt lat="43.61035" lon="6.94393">
        <ele>70.6</ele>
        <time>2012-03-10T09:23:30Z</time>
      </trkpt>
      <trkpt lat="43.61022" lon="6.94389">
        <ele>74.4</ele>
        <time>2012-03-10T09:23:37Z</time>
      </trkpt>
      <trkpt lat="43.61008" lon="6.94385">
        <ele>70.9</ele>
        <time>2012-03-10T09:23:43Z</time>
      </trkpt>
      <trkpt lat="43.60996" lon="6.94378">
        <ele>71.8</ele>
        <time>2012-03-10T09:23:48Z</time>
      </trkpt>
      <trkpt lat="43.60982" lon="6.94371">
        <ele>76.9</ele>
        <time>2012-03-10T09:23:53Z</time>
      </trkpt>
      <trkpt lat="43.60967" lon="6.94362">
        <ele>75.2</ele>
        <time>2012-03-10T09:23:59Z</time>
      </trkpt>
      <trkpt lat="43.60956" lon="6.9435">
        <ele>77.1</ele>
        <time>2012-03-10T09:24:03Z</time>
      </trkpt>
      <trkpt lat="43.60944" lon="6.9434">
        <ele>78.7</ele>
        <time>2012-03-10T09:24:08Z</time>
      </trkpt>
      <trkpt lat="43.60929" lon="6.94334">
        <ele>76.9</ele>
        <time>2012-03-10T09:24:13Z</time>
      </trkpt>
      <trkpt lat="43.60904" lon="6.9432">
        <ele>81.1</ele>
        <time>2012-03-10T09:24:21Z</time>
      </trkpt>
      <trkpt lat="43.60879" lon="6.94304">
        <ele>73.8</ele>
        <time>2012-03-10T09:24:27Z</time>
      </trkpt>
      <trkpt lat="43.60853" lon="6.94291">
        <ele>69.5</ele>
        <time>2012-03-10T09:24:32Z</time>
      </trkpt>
      <trkpt lat="43.60838" lon="6.94287">
        <ele>67.6</ele>
        <time>2012-03-10T09:25:02Z</time>
      </trkpt>
      <trkpt lat="43.60821" lon="6.94275">
        <ele>66.3</ele>
        <time>2012-03-10T09:25:06Z</time>
      </trkpt>
      <trkpt lat="43.60809" lon="6.94241">
        <ele>60.3</ele>
        <time>2012-03-10T09:25:15Z</time>
      </trkpt>
      <trkpt lat="43.60805" lon="6.94221">
        <ele>59.5</ele>
        <time>2012-03-10T09:25:20Z</time>
      </trkpt>
      <trkpt lat="43.60807" lon="6.94201">
        <ele>54.8</ele>
        <time>2012-03-10T09:25:49Z</time>
      </trkpt>
      <trkpt lat="43.60809" lon="6.9418">
        <ele>53.8</ele>
        <time>2012-03-10T09:25:53Z</time>
      </trkpt>
      <trkpt lat="43.60809" lon="6.94138">
        <ele>52.4</ele>
        <time>2012-03-10T09:25:59Z</time>
      </trkpt>
      <trkpt lat="43.60811" lon="6.94094">
        <ele>60.7</ele>
        <time>2012-03-10T09:26:05Z</time>
      </trkpt>
      <trkpt lat="43.60815" lon="6.94045">
        <ele>54.1</ele>
        <time>2012-03-10T09:26:11Z</time>
      </trkpt>
      <trkpt lat="43.60823" lon="6.93995">
        <ele>52.5</ele>
        <time>2012-03-10T09:26:17Z</time>
      </trkpt>
      <trkpt lat="43.6084" lon="6.9396">
        <ele>55.5</ele>
        <time>2012-03-10T09:26:23Z</time>
      </trkpt>
      <trkpt lat="43.60863" lon="6.93971">
        <ele>53.9</ele>
        <time>2012-03-10T09:26:33Z</time>
      </trkpt>
      <trkpt lat="43.60874" lon="6.93986">
        <ele>53.5</ele>
        <time>2012-03-10T09:26:39Z</time>
      </trkpt>
      <trkpt lat="43.60887" lon="6.93997">
        <ele>53.4</ele>
        <time>2012-03-10T09:26:44Z</time>
      </trkpt>
      <trkpt lat="43.60902" lon="6.94006">
        <ele>51.3</ele>
        <time>2012-03-10T09:26:49Z</time>
      </trkpt>
      <trkpt lat="43.60915" lon="6.94011">
        <ele>49.3</ele>
        <time>2012-03-10T09:26:53Z</time>
      </trkpt>
      <trkpt lat="43.60941" lon="6.94025">
        <ele>53.2</ele>
        <time>2012-03-10T09:27:01Z</time>
      </trkpt>
      <trkpt lat="43.60954" lon="6.94034">
        <ele>56.7</ele>
        <time>2012-03-10T09:27:05Z</time>
      </trkpt>
      <trkpt lat="43.60982" lon="6.9405">
        <ele>52.5</ele>
        <time>2012-03-10T09:27:13Z</time>
      </trkpt>
      <trkpt lat="43.60998" lon="6.94049">
        <ele>55.6</ele>
        <time>2012-03-10T09:27:18Z</time>
      </trkpt>
      <trkpt lat="43.61008" lon="6.94036">
        <ele>58.6</ele>
        <time>2012-03-10T09:27:24Z</time>
      </trkpt>
      <trkpt lat="43.61012" lon="6.94017">
        <ele>59.5</ele>
        <time>2012-03-10T09:27:32Z</time>
      </trkpt>
      <trkpt lat="43.61012" lon="6.93997">
        <ele>59.6</ele>
        <time>2012-03-10T09:27:42Z</time>
      </trkpt>
      <trkpt lat="43.6101" lon="6.93977">
        <ele>62.1</ele>
        <time>2012-03-10T09:27:50Z</time>
      </trkpt>
      <trkpt lat="43.61008" lon="6.93957">
        <ele>61.4</ele>
        <time>2012-03-10T09:27:57Z</time>
      </trkpt>
      <trkpt lat="43.61005" lon="6.93936">
        <ele>63.1</ele>
        <time>2012-03-10T09:28:04Z</time>
      </trkpt>
      <trkpt lat="43.61017" lon="6.93922">
        <ele>67.1</ele>
        <time>2012-03-10T09:28:13Z</time>
      </trkpt>
      <trkpt lat="43.61032" lon="6.9392">
        <ele>67.4</ele>
        <time>2012-03-10T09:28:20Z</time>
      </trkpt>
      <trkpt lat="43.61047" lon="6.93918">
        <ele>69</ele>
        <time>2012-03-10T09:28:26Z</time>
      </trkpt>
      <trkpt lat="43.61062" lon="6.93916">
        <ele>69.1</ele>
        <time>2012-03-10T09:28:32Z</time>
      </trkpt>
      <trkpt lat="43.61077" lon="6.9392">
        <ele>70.2</ele>
        <time>2012-03-10T09:28:39Z</time>
      </trkpt>
      <trkpt lat="43.61091" lon="6.93923">
        <ele>72.8</ele>
        <time>2012-03-10T09:28:46Z</time>
      </trkpt>
      <trkpt lat="43.61106" lon="6.93925">
        <ele>70.2</ele>
        <time>2012-03-10T09:28:54Z</time>
      </trkpt>
      <trkpt lat="43.61121" lon="6.9393">
        <ele>70.7</ele>
        <time>2012-03-10T09:29:00Z</time>
      </trkpt>
      <trkpt lat="43.61133" lon="6.93938">
        <ele>70.7</ele>
        <time>2012-03-10T09:29:05Z</time>
      </trkpt>
      <trkpt lat="43.61147" lon="6.93944">
        <ele>70.3</ele>
        <time>2012-03-10T09:29:11Z</time>
      </trkpt>
      <trkpt lat="43.61159" lon="6.93933">
        <ele>69.8</ele>
        <time>2012-03-10T09:29:18Z</time>
      </trkpt>
      <trkpt lat="43.61174" lon="6.93924">
        <ele>71.2</ele>
        <time>2012-03-10T09:29:23Z</time>
      </trkpt>
      <trkpt lat="43.61189" lon="6.93924">
        <ele>69.8</ele>
        <time>2012-03-10T09:29:29Z</time>
      </trkpt>
      <trkpt lat="43.61202" lon="6.93927">
        <ele>71</ele>
        <time>2012-03-10T09:29:35Z</time>
      </trkpt>
      <trkpt lat="43.61216" lon="6.93929">
        <ele>77.2</ele>
        <time>2012-03-10T09:29:41Z</time>
      </trkpt>
      <trkpt lat="43.6123" lon="6.93934">
        <ele>75.9</ele>
        <time>2012-03-10T09:29:47Z</time>
      </trkpt>
      <trkpt lat="43.61245" lon="6.93937">
        <ele>78.6</ele>
        <time>2012-03-10T09:29:54Z</time>
      </trkpt>
      <trkpt lat="43.61259" lon="6.93942">
        <ele>78.9</ele>
        <time>2012-03-10T09:30:01Z</time>
      </trkpt>
      <trkpt lat="43.61272" lon="6.93946">
        <ele>80.6</ele>
        <time>2012-03-10T09:30:06Z</time>
      </trkpt>
      <trkpt lat="43.61288" lon="6.9394">
        <ele>77.1</ele>
        <time>2012-03-10T09:30:12Z</time>
      </trkpt>
      <trkpt lat="43.61301" lon="6.93934">
        <ele>77.4</ele>
        <time>2012-03-10T09:30:17Z</time>
      </trkpt>
      <trkpt lat="43.61314" lon="6.93927">
        <ele>79.1</ele>
        <time>2012-03-10T09:30:23Z</time>
      </trkpt>
      <trkpt lat="43.61326" lon="6.93919">
        <ele>78.7</ele>
        <time>2012-03-10T09:30:29Z</time>
      </trkpt>
      <trkpt lat="43.6134" lon="6.93911">
        <ele>80.2</ele>
        <time>2012-03-10T09:30:37Z</time>
      </trkpt>
      <trkpt lat="43.61354" lon="6.93903">
        <ele>84.7</ele>
        <time>2012-03-10T09:30:44Z</time>
      </trkpt>
      <trkpt lat="43.61368" lon="6.93896">
        <ele>87.5</ele>
        <time>2012-03-10T09:30:51Z</time>
      </trkpt>
      <trkpt lat="43.61382" lon="6.93892">
        <ele>84.2</ele>
        <time>2012-03-10T09:32:11Z</time>
      </trkpt>
      <trkpt lat="43.61398" lon="6.93886">
        <ele>88.3</ele>
        <time>2012-03-10T09:32:37Z</time>
      </trkpt>
      <trkpt lat="43.61414" lon="6.93893">
        <ele>82.7</ele>
        <time>2012-03-10T09:32:41Z</time>
      </trkpt>
      <trkpt lat="43.61428" lon="6.93895">
        <ele>83.5</ele>
        <time>2012-03-10T09:32:49Z</time>
      </trkpt>
      <trkpt lat="43.61442" lon="6.93897">
        <ele>85</ele>
        <time>2012-03-10T09:32:55Z</time>
      </trkpt>
      <trkpt lat="43.61456" lon="6.93902">
        <ele>81.1</ele>
        <time>2012-03-10T09:33:01Z</time>
      </trkpt>
      <trkpt lat="43.61471" lon="6.93905">
        <ele>83.6</ele>
        <time>2012-03-10T09:33:09Z</time>
      </trkpt>
      <trkpt lat="43.61486" lon="6.9391">
        <ele>81.9</ele>
        <time>2012-03-10T09:33:17Z</time>
      </trkpt>
      <trkpt lat="43.61498" lon="6.9392">
        <ele>87.6</ele>
        <time>2012-03-10T09:33:23Z</time>
      </trkpt>
      <trkpt lat="43.6151" lon="6.9393">
        <ele>84.1</ele>
        <time>2012-03-10T09:33:30Z</time>
      </trkpt>
      <trkpt lat="43.61523" lon="6.93942">
        <ele>86.2</ele>
        <time>2012-03-10T09:33:37Z</time>
      </trkpt>
      <trkpt lat="43.61536" lon="6.93947">
        <ele>86.1</ele>
        <time>2012-03-10T09:33:44Z</time>
      </trkpt>
      <trkpt lat="43.61553" lon="6.93944">
        <ele>91.8</ele>
        <time>2012-03-10T09:33:53Z</time>
      </trkpt>
      <trkpt lat="43.61568" lon="6.93951">
        <ele>89.3</ele>
        <time>2012-03-10T09:33:59Z</time>
      </trkpt>
      <trkpt lat="43.61582" lon="6.93959">
        <ele>86.4</ele>
        <time>2012-03-10T09:34:04Z</time>
      </trkpt>
      <trkpt lat="43.61596" lon="6.9396">
        <ele>89.8</ele>
        <time>2012-03-10T09:34:11Z</time>
      </trkpt>
      <trkpt lat="43.61609" lon="6.9397">
        <ele>85.1</ele>
        <time>2012-03-10T09:34:22Z</time>
      </trkpt>
      <trkpt lat="43.61623" lon="6.93975">
        <ele>91.1</ele>
        <time>2012-03-10T09:34:31Z</time>
      </trkpt>
      <trkpt lat="43.61635" lon="6.93985">
        <ele>96</ele>
        <time>2012-03-10T09:34:39Z</time>
      </trkpt>
      <trkpt lat="43.61638" lon="6.94005">
        <ele>97.2</ele>
        <time>2012-03-10T09:34:46Z</time>
      </trkpt>
      <trkpt lat="43.61642" lon="6.94024">
        <ele>100.5</ele>
        <time>2012-03-10T09:34:54Z</time>
      </trkpt>
      <trkpt lat="43.61646" lon="6.94042">
        <ele>102.1</ele>
        <time>2012-03-10T09:35:02Z</time>
      </trkpt>
      <trkpt lat="43.6166" lon="6.94049">
        <ele>105.1</ele>
        <time>2012-03-10T09:35:15Z</time>
      </trkpt>
      <trkpt lat="43.61674" lon="6.94044">
        <ele>105</ele>
        <time>2012-03-10T09:35:59Z</time>
      </trkpt>
      <trkpt lat="43.61688" lon="6.94033">
        <ele>102.4</ele>
        <time>2012-03-10T09:36:04Z</time>
      </trkpt>
      <trkpt lat="43.61717" lon="6.9401">
        <ele>101.5</ele>
        <time>2012-03-10T09:36:10Z</time>
      </trkpt>
      <trkpt lat="43.61748" lon="6.94012">
        <ele>101</ele>
        <time>2012-03-10T09:36:17Z</time>
      </trkpt>
      <trkpt lat="43.61765" lon="6.94015">
        <ele>103.3</ele>
        <time>2012-03-10T09:36:21Z</time>
      </trkpt>
      <trkpt lat="43.61799" lon="6.94023">
        <ele>103.9</ele>
        <time>2012-03-10T09:36:29Z</time>
      </trkpt>
      <trkpt lat="43.61826" lon="6.94026">
        <ele>106.7</ele>
        <time>2012-03-10T09:36:35Z</time>
      </trkpt>
      <trkpt lat="43.6184" lon="6.94028">
        <ele>106</ele>
        <time>2012-03-10T09:36:39Z</time>
      </trkpt>
      <trkpt lat="43.61867" lon="6.94034">
        <ele>103.8</ele>
        <time>2012-03-10T09:36:47Z</time>
      </trkpt>
      <trkpt lat="43.61881" lon="6.94031">
        <ele>108.3</ele>
        <time>2012-03-10T09:36:53Z</time>
      </trkpt>
      <trkpt lat="43.61896" lon="6.94038">
        <ele>107.9</ele>
        <time>2012-03-10T09:36:59Z</time>
      </trkpt>
      <trkpt lat="43.6191" lon="6.94043">
        <ele>110</ele>
        <time>2012-03-10T09:37:04Z</time>
      </trkpt>
      <trkpt lat="43.61924" lon="6.94053">
        <ele>108.2</ele>
        <time>2012-03-10T09:37:10Z</time>
      </trkpt>
      <trkpt lat="43.61935" lon="6.94066">
        <ele>110.2</ele>
        <time>2012-03-10T09:37:16Z</time>
      </trkpt>
      <trkpt lat="43.61946" lon="6.94078">
        <ele>110.2</ele>
        <time>2012-03-10T09:37:22Z</time>
      </trkpt>
      <trkpt lat="43.61958" lon="6.9409">
        <ele>110.3</ele>
        <time>2012-03-10T09:37:28Z</time>
      </trkpt>
      <trkpt lat="43.61972" lon="6.94098">
        <ele>108.9</ele>
        <time>2012-03-10T09:37:33Z</time>
      </trkpt>
      <trkpt lat="43.61985" lon="6.94106">
        <ele>112.7</ele>
        <time>2012-03-10T09:37:38Z</time>
      </trkpt>
      <trkpt lat="43.61999" lon="6.94117">
        <ele>110.5</ele>
        <time>2012-03-10T09:37:43Z</time>
      </trkpt>
      <trkpt lat="43.62013" lon="6.94122">
        <ele>112.6</ele>
        <time>2012-03-10T09:37:48Z</time>
      </trkpt>
      <trkpt lat="43.62029" lon="6.94118">
        <ele>112.2</ele>
        <time>2012-03-10T09:37:54Z</time>
      </trkpt>
      <trkpt lat="43.62042" lon="6.94119">
        <ele>115</ele>
        <time>2012-03-10T09:38:00Z</time>
      </trkpt>
      <trkpt lat="43.62058" lon="6.94118">
        <ele>115.5</ele>
        <time>2012-03-10T09:38:07Z</time>
      </trkpt>
      <trkpt lat="43.62074" lon="6.94112">
        <ele>117.5</ele>
        <time>2012-03-10T09:38:14Z</time>
      </trkpt>
      <trkpt lat="43.62062" lon="6.94102">
        <ele>119.6</ele>
        <time>2012-03-10T09:38:50Z</time>
      </trkpt>
      <trkpt lat="43.62048" lon="6.94096">
        <ele>120.5</ele>
        <time>2012-03-10T09:39:00Z</time>
      </trkpt>
      <trkpt lat="43.62034" lon="6.94091">
        <ele>121</ele>
        <time>2012-03-10T09:39:09Z</time>
      </trkpt>
      <trkpt lat="43.62021" lon="6.94081">
        <ele>121.4</ele>
        <time>2012-03-10T09:39:19Z</time>
      </trkpt>
      <trkpt lat="43.62009" lon="6.94074">
        <ele>121.5</ele>
        <time>2012-03-10T09:39:27Z</time>
      </trkpt>
      <trkpt lat="43.61996" lon="6.94065">
        <ele>122.3</ele>
        <time>2012-03-10T09:39:36Z</time>
      </trkpt>
      <trkpt lat="43.61984" lon="6.94052">
        <ele>124.1</ele>
        <time>2012-03-10T09:39:45Z</time>
      </trkpt>
      <trkpt lat="43.61975" lon="6.94038">
        <ele>124.8</ele>
        <time>2012-03-10T09:39:53Z</time>
      </trkpt>
      <trkpt lat="43.61966" lon="6.94022">
        <ele>126.8</ele>
        <time>2012-03-10T09:40:02Z</time>
      </trkpt>
      <trkpt lat="43.61963" lon="6.94004">
        <ele>128.3</ele>
        <time>2012-03-10T09:40:10Z</time>
      </trkpt>
      <trkpt lat="43.6196" lon="6.93985">
        <ele>130.7</ele>
        <time>2012-03-10T09:40:18Z</time>
      </trkpt>
      <trkpt lat="43.61959" lon="6.93965">
        <ele>133.9</ele>
        <time>2012-03-10T09:40:27Z</time>
      </trkpt>
      <trkpt lat="43.61964" lon="6.93945">
        <ele>132.9</ele>
        <time>2012-03-10T09:40:36Z</time>
      </trkpt>
      <trkpt lat="43.61968" lon="6.93927">
        <ele>135.6</ele>
        <time>2012-03-10T09:40:45Z</time>
      </trkpt>
      <trkpt lat="43.61975" lon="6.93909">
        <ele>134</ele>
        <time>2012-03-10T09:40:53Z</time>
      </trkpt>
      <trkpt lat="43.61982" lon="6.9389">
        <ele>136.6</ele>
        <time>2012-03-10T09:41:02Z</time>
      </trkpt>
      <trkpt lat="43.6199" lon="6.93873">
        <ele>140</ele>
        <time>2012-03-10T09:41:10Z</time>
      </trkpt>
      <trkpt lat="43.62001" lon="6.93858">
        <ele>138.7</ele>
        <time>2012-03-10T09:41:18Z</time>
      </trkpt>
      <trkpt lat="43.6201" lon="6.93843">
        <ele>140.7</ele>
        <time>2012-03-10T09:41:26Z</time>
      </trkpt>
      <trkpt lat="43.62021" lon="6.93831">
        <ele>141.7</ele>
        <time>2012-03-10T09:41:35Z</time>
      </trkpt>
      <trkpt lat="43.62031" lon="6.93818">
        <ele>143.6</ele>
        <time>2012-03-10T09:41:41Z</time>
      </trkpt>
      <trkpt lat="43.62043" lon="6.93804">
        <ele>144.4</ele>
        <time>2012-03-10T09:41:46Z</time>
      </trkpt>
      <trkpt lat="43.62055" lon="6.9379">
        <ele>144.8</ele>
        <time>2012-03-10T09:41:51Z</time>
      </trkpt>
      <trkpt lat="43.62065" lon="6.93776">
        <ele>144.2</ele>
        <time>2012-03-10T09:41:56Z</time>
      </trkpt>
      <trkpt lat="43.62077" lon="6.93762">
        <ele>144.7</ele>
        <time>2012-03-10T09:42:01Z</time>
      </trkpt>
      <trkpt lat="43.62088" lon="6.93748">
        <ele>145.6</ele>
        <time>2012-03-10T09:42:06Z</time>
      </trkpt>
      <trkpt lat="43.62092" lon="6.9373">
        <ele>146.5</ele>
        <time>2012-03-10T09:42:14Z</time>
      </trkpt>
      <trkpt lat="43.62079" lon="6.93719">
        <ele>144.8</ele>
        <time>2012-03-10T09:43:53Z</time>
      </trkpt>
      <trkpt lat="43.6205" lon="6.93727">
        <ele>145.8</ele>
        <time>2012-03-10T09:44:00Z</time>
      </trkpt>
      <trkpt lat="43.62036" lon="6.93725">
        <ele>144.8</ele>
        <time>2012-03-10T09:44:04Z</time>
      </trkpt>
      <trkpt lat="43.62021" lon="6.93721">
        <ele>144.3</ele>
        <time>2012-03-10T09:44:08Z</time>
      </trkpt>
      <trkpt lat="43.62006" lon="6.93711">
        <ele>145.8</ele>
        <time>2012-03-10T09:44:13Z</time>
      </trkpt>
      <trkpt lat="43.61978" lon="6.93697">
        <ele>148.6</ele>
        <time>2012-03-10T09:44:21Z</time>
      </trkpt>
      <trkpt lat="43.61965" lon="6.93694">
        <ele>149.4</ele>
        <time>2012-03-10T09:44:26Z</time>
      </trkpt>
      <trkpt lat="43.61952" lon="6.93703">
        <ele>150.2</ele>
        <time>2012-03-10T09:44:34Z</time>
      </trkpt>
      <trkpt lat="43.61939" lon="6.9371">
        <ele>149.7</ele>
        <time>2012-03-10T09:44:39Z</time>
      </trkpt>
      <trkpt lat="43.61927" lon="6.93724">
        <ele>149.4</ele>
        <time>2012-03-10T09:44:46Z</time>
      </trkpt>
      <trkpt lat="43.61918" lon="6.93742">
        <ele>150.2</ele>
        <time>2012-03-10T09:44:52Z</time>
      </trkpt>
      <trkpt lat="43.61909" lon="6.93757">
        <ele>151.7</ele>
        <time>2012-03-10T09:44:58Z</time>
      </trkpt>
      <trkpt lat="43.61897" lon="6.93767">
        <ele>151.6</ele>
        <time>2012-03-10T09:45:04Z</time>
      </trkpt>
      <trkpt lat="43.61884" lon="6.9376">
        <ele>153</ele>
        <time>2012-03-10T09:45:09Z</time>
      </trkpt>
      <trkpt lat="43.61871" lon="6.93772">
        <ele>153.5</ele>
        <time>2012-03-10T09:51:15Z</time>
      </trkpt>
      <trkpt lat="43.6185" lon="6.93804">
        <ele>143.3</ele>
        <time>2012-03-10T09:51:23Z</time>
      </trkpt>
      <trkpt lat="43.61839" lon="6.93847">
        <ele>133.8</ele>
        <time>2012-03-10T09:51:30Z</time>
      </trkpt>
      <trkpt lat="43.6181" lon="6.93847">
        <ele>126.6</ele>
        <time>2012-03-10T09:51:37Z</time>
      </trkpt>
      <trkpt lat="43.61796" lon="6.93839">
        <ele>124.9</ele>
        <time>2012-03-10T09:51:41Z</time>
      </trkpt>
      <trkpt lat="43.61784" lon="6.93851">
        <ele>119.2</ele>
        <time>2012-03-10T09:51:47Z</time>
      </trkpt>
      <trkpt lat="43.61776" lon="6.93885">
        <ele>110.4</ele>
        <time>2012-03-10T09:51:55Z</time>
      </trkpt>
      <trkpt lat="43.61778" lon="6.93905">
        <ele>110.1</ele>
        <time>2012-03-10T09:52:00Z</time>
      </trkpt>
      <trkpt lat="43.61768" lon="6.93919">
        <ele>103.7</ele>
        <time>2012-03-10T09:52:05Z</time>
      </trkpt>
      <trkpt lat="43.61766" lon="6.9394">
        <ele>99.2</ele>
        <time>2012-03-10T09:52:12Z</time>
      </trkpt>
      <trkpt lat="43.61776" lon="6.93955">
        <ele>103.8</ele>
        <time>2012-03-10T09:52:17Z</time>
      </trkpt>
      <trkpt lat="43.61802" lon="6.93972">
        <ele>105.5</ele>
        <time>2012-03-10T09:52:26Z</time>
      </trkpt>
      <trkpt lat="43.61817" lon="6.93984">
        <ele>107</ele>
        <time>2012-03-10T09:52:32Z</time>
      </trkpt>
      <trkpt lat="43.61842" lon="6.94002">
        <ele>107.8</ele>
        <time>2012-03-10T09:52:40Z</time>
      </trkpt>
      <trkpt lat="43.61839" lon="6.94022">
        <ele>106.5</ele>
        <time>2012-03-10T09:52:44Z</time>
      </trkpt>
      <trkpt lat="43.61823" lon="6.94031">
        <ele>107.5</ele>
        <time>2012-03-10T09:56:33Z</time>
      </trkpt>
      <trkpt lat="43.61795" lon="6.94028">
        <ele>106.7</ele>
        <time>2012-03-10T09:56:43Z</time>
      </trkpt>
      <trkpt lat="43.61781" lon="6.94018">
        <ele>106.7</ele>
        <time>2012-03-10T09:56:49Z</time>
      </trkpt>
      <trkpt lat="43.61766" lon="6.94014">
        <ele>103.9</ele>
        <time>2012-03-10T09:56:55Z</time>
      </trkpt>
      <trkpt lat="43.61751" lon="6.94011">
        <ele>106.2</ele>
        <time>2012-03-10T09:57:00Z</time>
      </trkpt>
      <trkpt lat="43.61735" lon="6.94009">
        <ele>105.5</ele>
        <time>2012-03-10T09:57:04Z</time>
      </trkpt>
      <trkpt lat="43.61703" lon="6.9402">
        <ele>101.7</ele>
        <time>2012-03-10T09:57:11Z</time>
      </trkpt>
      <trkpt lat="43.61675" lon="6.94043">
        <ele>102.3</ele>
        <time>2012-03-10T09:57:19Z</time>
      </trkpt>
      <trkpt lat="43.6166" lon="6.9405">
        <ele>102.3</ele>
        <time>2012-03-10T09:57:26Z</time>
      </trkpt>
      <trkpt lat="43.61645" lon="6.94054">
        <ele>104.2</ele>
        <time>2012-03-10T09:57:31Z</time>
      </trkpt>
      <trkpt lat="43.6163" lon="6.94061">
        <ele>104.6</ele>
        <time>2012-03-10T09:57:35Z</time>
      </trkpt>
      <trkpt lat="43.61615" lon="6.9407">
        <ele>107.9</ele>
        <time>2012-03-10T09:57:40Z</time>
      </trkpt>
      <trkpt lat="43.61591" lon="6.94094">
        <ele>106.2</ele>
        <time>2012-03-10T09:57:49Z</time>
      </trkpt>
      <trkpt lat="43.61582" lon="6.94108">
        <ele>105.9</ele>
        <time>2012-03-10T09:57:54Z</time>
      </trkpt>
      <trkpt lat="43.61582" lon="6.94128">
        <ele>107.5</ele>
        <time>2012-03-10T09:58:02Z</time>
      </trkpt>
      <trkpt lat="43.61595" lon="6.94133">
        <ele>112.7</ele>
        <time>2012-03-10T09:58:13Z</time>
      </trkpt>
      <trkpt lat="43.61608" lon="6.94126">
        <ele>114.3</ele>
        <time>2012-03-10T09:58:22Z</time>
      </trkpt>
      <trkpt lat="43.61622" lon="6.94121">
        <ele>116.7</ele>
        <time>2012-03-10T09:58:31Z</time>
      </trkpt>
      <trkpt lat="43.61635" lon="6.94115">
        <ele>118.8</ele>
        <time>2012-03-10T09:58:39Z</time>
      </trkpt>
      <trkpt lat="43.61649" lon="6.94111">
        <ele>119.7</ele>
        <time>2012-03-10T09:58:47Z</time>
      </trkpt>
      <trkpt lat="43.61663" lon="6.9411">
        <ele>119.2</ele>
        <time>2012-03-10T09:58:55Z</time>
      </trkpt>
      <trkpt lat="43.61678" lon="6.94106">
        <ele>121.4</ele>
        <time>2012-03-10T09:59:04Z</time>
      </trkpt>
      <trkpt lat="43.61692" lon="6.94102">
        <ele>122.8</ele>
        <time>2012-03-10T09:59:13Z</time>
      </trkpt>
      <trkpt lat="43.61706" lon="6.94097">
        <ele>125</ele>
        <time>2012-03-10T09:59:22Z</time>
      </trkpt>
      <trkpt lat="43.61722" lon="6.94093">
        <ele>130.3</ele>
        <time>2012-03-10T09:59:32Z</time>
      </trkpt>
      <trkpt lat="43.61735" lon="6.94092">
        <ele>131.7</ele>
        <time>2012-03-10T09:59:40Z</time>
      </trkpt>
      <trkpt lat="43.6175" lon="6.94093">
        <ele>132</ele>
        <time>2012-03-10T09:59:49Z</time>
      </trkpt>
      <trkpt lat="43.61764" lon="6.94095">
        <ele>133.8</ele>
        <time>2012-03-10T09:59:58Z</time>
      </trkpt>
      <trkpt lat="43.61778" lon="6.941">
        <ele>139.3</ele>
        <time>2012-03-10T10:00:07Z</time>
      </trkpt>
      <trkpt lat="43.61791" lon="6.9411">
        <ele>137.5</ele>
        <time>2012-03-10T10:00:15Z</time>
      </trkpt>
      <trkpt lat="43.61802" lon="6.94122">
        <ele>137.5</ele>
        <time>2012-03-10T10:00:24Z</time>
      </trkpt>
      <trkpt lat="43.61814" lon="6.94133">
        <ele>142.2</ele>
        <time>2012-03-10T10:00:32Z</time>
      </trkpt>
      <trkpt lat="43.61825" lon="6.94147">
        <ele>141.6</ele>
        <time>2012-03-10T10:00:40Z</time>
      </trkpt>
      <trkpt lat="43.61833" lon="6.94161">
        <ele>141.5</ele>
        <time>2012-03-10T10:00:48Z</time>
      </trkpt>
      <trkpt lat="43.61839" lon="6.94179">
        <ele>147.9</ele>
        <time>2012-03-10T10:00:57Z</time>
      </trkpt>
      <trkpt lat="43.61846" lon="6.94197">
        <ele>138.8</ele>
        <time>2012-03-10T10:02:38Z</time>
      </trkpt>
      <trkpt lat="43.61851" lon="6.94214">
        <ele>139.7</ele>
        <time>2012-03-10T10:02:47Z</time>
      </trkpt>
      <trkpt lat="43.61856" lon="6.94233">
        <ele>146.7</ele>
        <time>2012-03-10T10:02:54Z</time>
      </trkpt>
      <trkpt lat="43.61861" lon="6.94251">
        <ele>145.7</ele>
        <time>2012-03-10T10:03:00Z</time>
      </trkpt>
      <trkpt lat="43.61869" lon="6.94268">
        <ele>146.6</ele>
        <time>2012-03-10T10:03:07Z</time>
      </trkpt>
      <trkpt lat="43.61875" lon="6.94286">
        <ele>146.7</ele>
        <time>2012-03-10T10:03:13Z</time>
      </trkpt>
      <trkpt lat="43.61882" lon="6.94304">
        <ele>152.3</ele>
        <time>2012-03-10T10:03:20Z</time>
      </trkpt>
      <trkpt lat="43.61885" lon="6.94322">
        <ele>155.2</ele>
        <time>2012-03-10T10:03:26Z</time>
      </trkpt>
      <trkpt lat="43.61882" lon="6.94342">
        <ele>151.6</ele>
        <time>2012-03-10T10:03:32Z</time>
      </trkpt>
      <trkpt lat="43.6188" lon="6.94361">
        <ele>155.9</ele>
        <time>2012-03-10T10:03:40Z</time>
      </trkpt>
      <trkpt lat="43.61874" lon="6.9438">
        <ele>152.1</ele>
        <time>2012-03-10T10:03:47Z</time>
      </trkpt>
      <trkpt lat="43.61874" lon="6.944">
        <ele>156.2</ele>
        <time>2012-03-10T10:03:58Z</time>
      </trkpt>
      <trkpt lat="43.61884" lon="6.94413">
        <ele>154.6</ele>
        <time>2012-03-10T10:04:05Z</time>
      </trkpt>
      <trkpt lat="43.61885" lon="6.94433">
        <ele>148.9</ele>
        <time>2012-03-10T10:05:05Z</time>
      </trkpt>
      <trkpt lat="43.61867" lon="6.94484">
        <ele>145.5</ele>
        <time>2012-03-10T10:05:12Z</time>
      </trkpt>
      <trkpt lat="43.61859" lon="6.94529">
        <ele>137.7</ele>
        <time>2012-03-10T10:05:17Z</time>
      </trkpt>
      <trkpt lat="43.61843" lon="6.94564">
        <ele>134.2</ele>
        <time>2012-03-10T10:05:21Z</time>
      </trkpt>
      <trkpt lat="43.61824" lon="6.946">
        <ele>124.9</ele>
        <time>2012-03-10T10:05:27Z</time>
      </trkpt>
      <trkpt lat="43.61817" lon="6.94642">
        <ele>117.9</ele>
        <time>2012-03-10T10:05:35Z</time>
      </trkpt>
      <trkpt lat="43.61816" lon="6.94662">
        <ele>115.7</ele>
        <time>2012-03-10T10:05:39Z</time>
      </trkpt>
      <trkpt lat="43.61808" lon="6.94679">
        <ele>111.9</ele>
        <time>2012-03-10T10:05:44Z</time>
      </trkpt>
      <trkpt lat="43.61791" lon="6.94727">
        <ele>102.9</ele>
        <time>2012-03-10T10:05:51Z</time>
      </trkpt>
      <trkpt lat="43.61763" lon="6.94751">
        <ele>101</ele>
        <time>2012-03-10T10:05:57Z</time>
      </trkpt>
      <trkpt lat="43.61761" lon="6.948">
        <ele>96.6</ele>
        <time>2012-03-10T10:06:02Z</time>
      </trkpt>
      <trkpt lat="43.61747" lon="6.94828">
        <ele>92.3</ele>
        <time>2012-03-10T10:06:13Z</time>
      </trkpt>
      <trkpt lat="43.61722" lon="6.94842">
        <ele>92.8</ele>
        <time>2012-03-10T10:06:20Z</time>
      </trkpt>
      <trkpt lat="43.61735" lon="6.94836">
        <ele>90.9</ele>
        <time>2012-03-10T10:09:11Z</time>
      </trkpt>
      <trkpt lat="43.61748" lon="6.94825">
        <ele>94.5</ele>
        <time>2012-03-10T10:09:20Z</time>
      </trkpt>
      <trkpt lat="43.6176" lon="6.94813">
        <ele>98.4</ele>
        <time>2012-03-10T10:09:28Z</time>
      </trkpt>
      <trkpt lat="43.6176" lon="6.94794">
        <ele>96.6</ele>
        <time>2012-03-10T10:09:36Z</time>
      </trkpt>
      <trkpt lat="43.61761" lon="6.94773">
        <ele>97.3</ele>
        <time>2012-03-10T10:09:44Z</time>
      </trkpt>
      <trkpt lat="43.61761" lon="6.94755">
        <ele>97.7</ele>
        <time>2012-03-10T10:09:50Z</time>
      </trkpt>
      <trkpt lat="43.61769" lon="6.94737">
        <ele>98.6</ele>
        <time>2012-03-10T10:10:00Z</time>
      </trkpt>
      <trkpt lat="43.61784" lon="6.94733">
        <ele>102</ele>
        <time>2012-03-10T10:10:09Z</time>
      </trkpt>
      <trkpt lat="43.61794" lon="6.94719">
        <ele>107.3</ele>
        <time>2012-03-10T10:10:19Z</time>
      </trkpt>
      <trkpt lat="43.61801" lon="6.94701">
        <ele>107.4</ele>
        <time>2012-03-10T10:10:28Z</time>
      </trkpt>
      <trkpt lat="43.61808" lon="6.94684">
        <ele>105.6</ele>
        <time>2012-03-10T10:10:37Z</time>
      </trkpt>
      <trkpt lat="43.61816" lon="6.94668">
        <ele>111.5</ele>
        <time>2012-03-10T10:11:35Z</time>
      </trkpt>
      <trkpt lat="43.61812" lon="6.9465">
        <ele>117</ele>
        <time>2012-03-10T10:11:46Z</time>
      </trkpt>
      <trkpt lat="43.6182" lon="6.94634">
        <ele>116.6</ele>
        <time>2012-03-10T10:11:57Z</time>
      </trkpt>
      <trkpt lat="43.6182" lon="6.94615">
        <ele>121.4</ele>
        <time>2012-03-10T10:12:24Z</time>
      </trkpt>
      <trkpt lat="43.61824" lon="6.94598">
        <ele>123.4</ele>
        <time>2012-03-10T10:12:33Z</time>
      </trkpt>
      <trkpt lat="43.61831" lon="6.94582">
        <ele>128.4</ele>
        <time>2012-03-10T10:12:59Z</time>
      </trkpt>
      <trkpt lat="43.61838" lon="6.94565">
        <ele>131.3</ele>
        <time>2012-03-10T10:13:09Z</time>
      </trkpt>
      <trkpt lat="43.61848" lon="6.94551">
        <ele>134.5</ele>
        <time>2012-03-10T10:13:21Z</time>
      </trkpt>
      <trkpt lat="43.61854" lon="6.94534">
        <ele>142</ele>
        <time>2012-03-10T10:13:34Z</time>
      </trkpt>
      <trkpt lat="43.61859" lon="6.94516">
        <ele>142.9</ele>
        <time>2012-03-10T10:13:47Z</time>
      </trkpt>
      <trkpt lat="43.61865" lon="6.94497">
        <ele>142.1</ele>
        <time>2012-03-10T10:14:00Z</time>
      </trkpt>
      <trkpt lat="43.61868" lon="6.94478">
        <ele>142.9</ele>
        <time>2012-03-10T10:14:14Z</time>
      </trkpt>
      <trkpt lat="43.61868" lon="6.9446">
        <ele>147.7</ele>
        <time>2012-03-10T10:14:26Z</time>
      </trkpt>
      <trkpt lat="43.61875" lon="6.94443">
        <ele>148.1</ele>
        <time>2012-03-10T10:14:38Z</time>
      </trkpt>
      <trkpt lat="43.61884" lon="6.94428">
        <ele>153.6</ele>
        <time>2012-03-10T10:14:52Z</time>
      </trkpt>
      <trkpt lat="43.61876" lon="6.94413">
        <ele>151.2</ele>
        <time>2012-03-10T10:19:51Z</time>
      </trkpt>
      <trkpt lat="43.61872" lon="6.94394">
        <ele>152.4</ele>
        <time>2012-03-10T10:20:01Z</time>
      </trkpt>
      <trkpt lat="43.61862" lon="6.94381">
        <ele>155.7</ele>
        <time>2012-03-10T10:20:10Z</time>
      </trkpt>
      <trkpt lat="43.6185" lon="6.94371">
        <ele>153.7</ele>
        <time>2012-03-10T10:20:17Z</time>
      </trkpt>
      <trkpt lat="43.61836" lon="6.9436">
        <ele>159.3</ele>
        <time>2012-03-10T10:20:23Z</time>
      </trkpt>
      <trkpt lat="43.61825" lon="6.94344">
        <ele>155.7</ele>
        <time>2012-03-10T10:20:29Z</time>
      </trkpt>
      <trkpt lat="43.61817" lon="6.94328">
        <ele>155.6</ele>
        <time>2012-03-10T10:20:35Z</time>
      </trkpt>
      <trkpt lat="43.61806" lon="6.94312">
        <ele>156.1</ele>
        <time>2012-03-10T10:20:42Z</time>
      </trkpt>
      <trkpt lat="43.61796" lon="6.94298">
        <ele>158.5</ele>
        <time>2012-03-10T10:20:47Z</time>
      </trkpt>
      <trkpt lat="43.61788" lon="6.94281">
        <ele>157.2</ele>
        <time>2012-03-10T10:20:52Z</time>
      </trkpt>
      <trkpt lat="43.61788" lon="6.9426">
        <ele>155.3</ele>
        <time>2012-03-10T10:20:57Z</time>
      </trkpt>
      <trkpt lat="43.61785" lon="6.9424">
        <ele>156.3</ele>
        <time>2012-03-10T10:21:03Z</time>
      </trkpt>
      <trkpt lat="43.61779" lon="6.9422">
        <ele>152.8</ele>
        <time>2012-03-10T10:21:10Z</time>
      </trkpt>
      <trkpt lat="43.61769" lon="6.94206">
        <ele>153.1</ele>
        <time>2012-03-10T10:21:20Z</time>
      </trkpt>
      <trkpt lat="43.61759" lon="6.94192">
        <ele>150.9</ele>
        <time>2012-03-10T10:21:25Z</time>
      </trkpt>
      <trkpt lat="43.6175" lon="6.94176">
        <ele>148.7</ele>
        <time>2012-03-10T10:21:31Z</time>
      </trkpt>
      <trkpt lat="43.61719" lon="6.94159">
        <ele>146.1</ele>
        <time>2012-03-10T10:21:37Z</time>
      </trkpt>
      <trkpt lat="43.61708" lon="6.94142">
        <ele>141.6</ele>
        <time>2012-03-10T10:21:41Z</time>
      </trkpt>
      <trkpt lat="43.61692" lon="6.94142">
        <ele>138</ele>
        <time>2012-03-10T10:21:45Z</time>
      </trkpt>
      <trkpt lat="43.61651" lon="6.94179">
        <ele>130.7</ele>
        <time>2012-03-10T10:21:52Z</time>
      </trkpt>
      <trkpt lat="43.61637" lon="6.94164">
        <ele>126.9</ele>
        <time>2012-03-10T10:21:57Z</time>
      </trkpt>
      <trkpt lat="43.61616" lon="6.94142">
        <ele>118.9</ele>
        <time>2012-03-10T10:22:06Z</time>
      </trkpt>
      <trkpt lat="43.61591" lon="6.94148">
        <ele>117.3</ele>
        <time>2012-03-10T10:22:13Z</time>
      </trkpt>
      <trkpt lat="43.61528" lon="6.94095">
        <ele>110.7</ele>
        <time>2012-03-10T10:23:50Z</time>
      </trkpt>
      <trkpt lat="43.61515" lon="6.94089">
        <ele>118.1</ele>
        <time>2012-03-10T10:24:02Z</time>
      </trkpt>
      <trkpt lat="43.61503" lon="6.94081">
        <ele>121.1</ele>
        <time>2012-03-10T10:24:14Z</time>
      </trkpt>
      <trkpt lat="43.61488" lon="6.94072">
        <ele>121.1</ele>
        <time>2012-03-10T10:24:51Z</time>
      </trkpt>
      <trkpt lat="43.61474" lon="6.94074">
        <ele>121.6</ele>
        <time>2012-03-10T10:25:34Z</time>
      </trkpt>
      <trkpt lat="43.61461" lon="6.94077">
        <ele>122.6</ele>
        <time>2012-03-10T10:25:45Z</time>
      </trkpt>
      <trkpt lat="43.61446" lon="6.94078">
        <ele>128.6</ele>
        <time>2012-03-10T10:25:59Z</time>
      </trkpt>
      <trkpt lat="43.61431" lon="6.94078">
        <ele>124.3</ele>
        <time>2012-03-10T10:28:10Z</time>
      </trkpt>
      <trkpt lat="43.61417" lon="6.94072">
        <ele>132.5</ele>
        <time>2012-03-10T10:28:18Z</time>
      </trkpt>
      <trkpt lat="43.61389" lon="6.94073">
        <ele>131.4</ele>
        <time>2012-03-10T10:28:24Z</time>
      </trkpt>
      <trkpt lat="43.61356" lon="6.94075">
        <ele>131.4</ele>
        <time>2012-03-10T10:28:30Z</time>
      </trkpt>
      <trkpt lat="43.61326" lon="6.94081">
        <ele>130</ele>
        <time>2012-03-10T10:28:39Z</time>
      </trkpt>
      <trkpt lat="43.61313" lon="6.94091">
        <ele>126</ele>
        <time>2012-03-10T10:28:44Z</time>
      </trkpt>
      <trkpt lat="43.61306" lon="6.94087">
        <ele>120.8</ele>
        <time>2012-03-10T10:28:52Z</time>
      </trkpt>
      <trkpt lat="43.61328" lon="6.94043">
        <ele>118.9</ele>
        <time>2012-03-10T10:28:58Z</time>
      </trkpt>
      <trkpt lat="43.61351" lon="6.94014">
        <ele>112.8</ele>
        <time>2012-03-10T10:29:02Z</time>
      </trkpt>
      <trkpt lat="43.61375" lon="6.93995">
        <ele>109.4</ele>
        <time>2012-03-10T10:29:08Z</time>
      </trkpt>
      <trkpt lat="43.61388" lon="6.93987">
        <ele>108.2</ele>
        <time>2012-03-10T10:29:13Z</time>
      </trkpt>
      <trkpt lat="43.61398" lon="6.93974">
        <ele>104.3</ele>
        <time>2012-03-10T10:29:18Z</time>
      </trkpt>
      <trkpt lat="43.61374" lon="6.93957">
        <ele>97.7</ele>
        <time>2012-03-10T10:29:25Z</time>
      </trkpt>
      <trkpt lat="43.61365" lon="6.93939">
        <ele>92.1</ele>
        <time>2012-03-10T10:29:31Z</time>
      </trkpt>
      <trkpt lat="43.61353" lon="6.93929">
        <ele>90.3</ele>
        <time>2012-03-10T10:29:37Z</time>
      </trkpt>
      <trkpt lat="43.61362" lon="6.93913">
        <ele>90.5</ele>
        <time>2012-03-10T10:29:45Z</time>
      </trkpt>
      <trkpt lat="43.61347" lon="6.93911">
        <ele>85.8</ele>
        <time>2012-03-10T10:33:48Z</time>
      </trkpt>
      <trkpt lat="43.61322" lon="6.9393">
        <ele>81.1</ele>
        <time>2012-03-10T10:33:54Z</time>
      </trkpt>
      <trkpt lat="43.61286" lon="6.93942">
        <ele>82.5</ele>
        <time>2012-03-10T10:34:00Z</time>
      </trkpt>
      <trkpt lat="43.61253" lon="6.93944">
        <ele>79.3</ele>
        <time>2012-03-10T10:34:11Z</time>
      </trkpt>
      <trkpt lat="43.61237" lon="6.93942">
        <ele>87.5</ele>
        <time>2012-03-10T10:34:17Z</time>
      </trkpt>
      <trkpt lat="43.61223" lon="6.93942">
        <ele>88.8</ele>
        <time>2012-03-10T10:34:22Z</time>
      </trkpt>
      <trkpt lat="43.61206" lon="6.93936">
        <ele>79.7</ele>
        <time>2012-03-10T10:34:26Z</time>
      </trkpt>
      <trkpt lat="43.61177" lon="6.93928">
        <ele>77.3</ele>
        <time>2012-03-10T10:34:31Z</time>
      </trkpt>
      <trkpt lat="43.61162" lon="6.93934">
        <ele>76.6</ele>
        <time>2012-03-10T10:34:36Z</time>
      </trkpt>
      <trkpt lat="43.61149" lon="6.93946">
        <ele>76.2</ele>
        <time>2012-03-10T10:34:51Z</time>
      </trkpt>
      <trkpt lat="43.61135" lon="6.93942">
        <ele>75.1</ele>
        <time>2012-03-10T10:34:59Z</time>
      </trkpt>
      <trkpt lat="43.6112" lon="6.93936">
        <ele>73.5</ele>
        <time>2012-03-10T10:35:04Z</time>
      </trkpt>
      <trkpt lat="43.61107" lon="6.93928">
        <ele>76</ele>
        <time>2012-03-10T10:35:09Z</time>
      </trkpt>
      <trkpt lat="43.61092" lon="6.93925">
        <ele>76.5</ele>
        <time>2012-03-10T10:35:13Z</time>
      </trkpt>
      <trkpt lat="43.6106" lon="6.93918">
        <ele>72.6</ele>
        <time>2012-03-10T10:35:19Z</time>
      </trkpt>
      <trkpt lat="43.61044" lon="6.93922">
        <ele>70.7</ele>
        <time>2012-03-10T10:35:23Z</time>
      </trkpt>
      <trkpt lat="43.61014" lon="6.93927">
        <ele>73.7</ele>
        <time>2012-03-10T10:35:29Z</time>
      </trkpt>
      <trkpt lat="43.61007" lon="6.93948">
        <ele>66.2</ele>
        <time>2012-03-10T10:35:34Z</time>
      </trkpt>
      <trkpt lat="43.61015" lon="6.9399">
        <ele>63.8</ele>
        <time>2012-03-10T10:35:41Z</time>
      </trkpt>
      <trkpt lat="43.61016" lon="6.94011">
        <ele>64.4</ele>
        <time>2012-03-10T10:36:28Z</time>
      </trkpt>
      <trkpt lat="43.60998" lon="6.94053">
        <ele>62</ele>
        <time>2012-03-10T10:36:34Z</time>
      </trkpt>
      <trkpt lat="43.60953" lon="6.94037">
        <ele>60.3</ele>
        <time>2012-03-10T10:36:41Z</time>
      </trkpt>
      <trkpt lat="43.60921" lon="6.94019">
        <ele>59</ele>
        <time>2012-03-10T10:36:46Z</time>
      </trkpt>
      <trkpt lat="43.60891" lon="6.94004">
        <ele>54.4</ele>
        <time>2012-03-10T10:36:52Z</time>
      </trkpt>
      <trkpt lat="43.60876" lon="6.9399">
        <ele>54.9</ele>
        <time>2012-03-10T10:36:56Z</time>
      </trkpt>
      <trkpt lat="43.60855" lon="6.9396">
        <ele>56.4</ele>
        <time>2012-03-10T10:37:05Z</time>
      </trkpt>
      <trkpt lat="43.60841" lon="6.93964">
        <ele>56.1</ele>
        <time>2012-03-10T10:37:12Z</time>
      </trkpt>
      <trkpt lat="43.608" lon="6.94164">
        <ele>60.1</ele>
        <time>2012-03-10T10:38:17Z</time>
      </trkpt>
      <trkpt lat="43.60794" lon="6.94146">
        <ele>65.8</ele>
        <time>2012-03-10T10:38:25Z</time>
      </trkpt>
      <trkpt lat="43.60792" lon="6.94127">
        <ele>65.4</ele>
        <time>2012-03-10T10:38:34Z</time>
      </trkpt>
      <trkpt lat="43.60784" lon="6.94109">
        <ele>70.9</ele>
        <time>2012-03-10T10:38:43Z</time>
      </trkpt>
      <trkpt lat="43.60776" lon="6.94094">
        <ele>69.7</ele>
        <time>2012-03-10T10:38:53Z</time>
      </trkpt>
      <trkpt lat="43.60769" lon="6.94075">
        <ele>76.5</ele>
        <time>2012-03-10T10:39:03Z</time>
      </trkpt>
      <trkpt lat="43.60766" lon="6.94057">
        <ele>75.7</ele>
        <time>2012-03-10T10:39:11Z</time>
      </trkpt>
      <trkpt lat="43.60764" lon="6.94038">
        <ele>75.7</ele>
        <time>2012-03-10T10:39:20Z</time>
      </trkpt>
      <trkpt lat="43.60762" lon="6.94019">
        <ele>78.8</ele>
        <time>2012-03-10T10:39:29Z</time>
      </trkpt>
      <trkpt lat="43.6076" lon="6.94">
        <ele>81.9</ele>
        <time>2012-03-10T10:39:38Z</time>
      </trkpt>
      <trkpt lat="43.60752" lon="6.93982">
        <ele>82.1</ele>
        <time>2012-03-10T10:39:48Z</time>
      </trkpt>
      <trkpt lat="43.60746" lon="6.93965">
        <ele>81.9</ele>
        <time>2012-03-10T10:39:56Z</time>
      </trkpt>
      <trkpt lat="43.60744" lon="6.93944">
        <ele>84.8</ele>
        <time>2012-03-10T10:40:05Z</time>
      </trkpt>
      <trkpt lat="43.60741" lon="6.93924">
        <ele>84</ele>
        <time>2012-03-10T10:40:16Z</time>
      </trkpt>
      <trkpt lat="43.6073" lon="6.93909">
        <ele>84.4</ele>
        <time>2012-03-10T10:40:25Z</time>
      </trkpt>
      <trkpt lat="43.60718" lon="6.93898">
        <ele>87.6</ele>
        <time>2012-03-10T10:40:34Z</time>
      </trkpt>
      <trkpt lat="43.60706" lon="6.93891">
        <ele>81.1</ele>
        <time>2012-03-10T10:40:44Z</time>
      </trkpt>
      <trkpt lat="43.60692" lon="6.93884">
        <ele>86.4</ele>
        <time>2012-03-10T10:40:53Z</time>
      </trkpt>
      <trkpt lat="43.60679" lon="6.93873">
        <ele>91.3</ele>
        <time>2012-03-10T10:41:02Z</time>
      </trkpt>
      <trkpt lat="43.60665" lon="6.9387">
        <ele>91.4</ele>
        <time>2012-03-10T10:41:12Z</time>
      </trkpt>
      <trkpt lat="43.60652" lon="6.93874">
        <ele>98</ele>
        <time>2012-03-10T10:41:21Z</time>
      </trkpt>
      <trkpt lat="43.60637" lon="6.93879">
        <ele>98</ele>
        <time>2012-03-10T10:41:32Z</time>
      </trkpt>
      <trkpt lat="43.60623" lon="6.93886">
        <ele>99.3</ele>
        <time>2012-03-10T10:41:43Z</time>
      </trkpt>
      <trkpt lat="43.6061" lon="6.9389">
        <ele>98.6</ele>
        <time>2012-03-10T10:41:53Z</time>
      </trkpt>
      <trkpt lat="43.60596" lon="6.93894">
        <ele>102.9</ele>
        <time>2012-03-10T10:42:03Z</time>
      </trkpt>
      <trkpt lat="43.60582" lon="6.93895">
        <ele>104.1</ele>
        <time>2012-03-10T10:42:12Z</time>
      </trkpt>
      <trkpt lat="43.6057" lon="6.93905">
        <ele>104</ele>
        <time>2012-03-10T10:42:26Z</time>
      </trkpt>
      <trkpt lat="43.60563" lon="6.93922">
        <ele>106.2</ele>
        <time>2012-03-10T10:42:39Z</time>
      </trkpt>
      <trkpt lat="43.60554" lon="6.93938">
        <ele>108.8</ele>
        <time>2012-03-10T10:42:49Z</time>
      </trkpt>
      <trkpt lat="43.60544" lon="6.93953">
        <ele>108.9</ele>
        <time>2012-03-10T10:42:58Z</time>
      </trkpt>
      <trkpt lat="43.60535" lon="6.93968">
        <ele>109.5</ele>
        <time>2012-03-10T10:43:07Z</time>
      </trkpt>
      <trkpt lat="43.60524" lon="6.93982">
        <ele>108.1</ele>
        <time>2012-03-10T10:43:16Z</time>
      </trkpt>
      <trkpt lat="43.60514" lon="6.93996">
        <ele>113.2</ele>
        <time>2012-03-10T10:43:25Z</time>
      </trkpt>
      <trkpt lat="43.60504" lon="6.94011">
        <ele>113.6</ele>
        <time>2012-03-10T10:43:33Z</time>
      </trkpt>
      <trkpt lat="43.60494" lon="6.94025">
        <ele>117.5</ele>
        <time>2012-03-10T10:43:39Z</time>
      </trkpt>
      <trkpt lat="43.60483" lon="6.94037">
        <ele>118.6</ele>
        <time>2012-03-10T10:43:44Z</time>
      </trkpt>
      <trkpt lat="43.60473" lon="6.9405">
        <ele>121</ele>
        <time>2012-03-10T10:43:49Z</time>
      </trkpt>
      <trkpt lat="43.60452" lon="6.94075">
        <ele>116</ele>
        <time>2012-03-10T10:43:59Z</time>
      </trkpt>
      <trkpt lat="43.60441" lon="6.94089">
        <ele>116.4</ele>
        <time>2012-03-10T10:44:07Z</time>
      </trkpt>
      <trkpt lat="43.60432" lon="6.94103">
        <ele>120.1</ele>
        <time>2012-03-10T10:44:15Z</time>
      </trkpt>
      <trkpt lat="43.60419" lon="6.94113">
        <ele>123.2</ele>
        <time>2012-03-10T10:44:22Z</time>
      </trkpt>
      <trkpt lat="43.60407" lon="6.94125">
        <ele>121.6</ele>
        <time>2012-03-10T10:44:29Z</time>
      </trkpt>
      <trkpt lat="43.60395" lon="6.94136">
        <ele>124.4</ele>
        <time>2012-03-10T10:44:40Z</time>
      </trkpt>
      <trkpt lat="43.60378" lon="6.94127">
        <ele>117</ele>
        <time>2012-03-10T10:46:56Z</time>
      </trkpt>
      <trkpt lat="43.60362" lon="6.94092">
        <ele>116.2</ele>
        <time>2012-03-10T10:47:03Z</time>
      </trkpt>
      <trkpt lat="43.60362" lon="6.94071">
        <ele>115.7</ele>
        <time>2012-03-10T10:47:09Z</time>
      </trkpt>
      <trkpt lat="43.60355" lon="6.94054">
        <ele>119.9</ele>
        <time>2012-03-10T10:47:17Z</time>
      </trkpt>
      <trkpt lat="43.60344" lon="6.94039">
        <ele>118.7</ele>
        <time>2012-03-10T10:47:23Z</time>
      </trkpt>
      <trkpt lat="43.60333" lon="6.94025">
        <ele>119</ele>
        <time>2012-03-10T10:47:30Z</time>
      </trkpt>
      <trkpt lat="43.6032" lon="6.94017">
        <ele>120.6</ele>
        <time>2012-03-10T10:47:38Z</time>
      </trkpt>
      <trkpt lat="43.60306" lon="6.94008">
        <ele>123.2</ele>
        <time>2012-03-10T10:47:44Z</time>
      </trkpt>
      <trkpt lat="43.60291" lon="6.94009">
        <ele>125</ele>
        <time>2012-03-10T10:47:54Z</time>
      </trkpt>
      <trkpt lat="43.60278" lon="6.94005">
        <ele>124</ele>
        <time>2012-03-10T10:48:04Z</time>
      </trkpt>
      <trkpt lat="43.60264" lon="6.94007">
        <ele>123.2</ele>
        <time>2012-03-10T10:48:11Z</time>
      </trkpt>
      <trkpt lat="43.60249" lon="6.9401">
        <ele>123.7</ele>
        <time>2012-03-10T10:48:16Z</time>
      </trkpt>
      <trkpt lat="43.60232" lon="6.94013">
        <ele>119.8</ele>
        <time>2012-03-10T10:48:20Z</time>
      </trkpt>
      <trkpt lat="43.60219" lon="6.94019">
        <ele>121.6</ele>
        <time>2012-03-10T10:49:16Z</time>
      </trkpt>
      <trkpt lat="43.60208" lon="6.94034">
        <ele>124.9</ele>
        <time>2012-03-10T10:49:25Z</time>
      </trkpt>
      <trkpt lat="43.60195" lon="6.94044">
        <ele>128.2</ele>
        <time>2012-03-10T10:49:32Z</time>
      </trkpt>
      <trkpt lat="43.60188" lon="6.94061">
        <ele>127.7</ele>
        <time>2012-03-10T10:49:39Z</time>
      </trkpt>
      <trkpt lat="43.60181" lon="6.9408">
        <ele>129.4</ele>
        <time>2012-03-10T10:49:48Z</time>
      </trkpt>
      <trkpt lat="43.60171" lon="6.94092">
        <ele>134.9</ele>
        <time>2012-03-10T10:49:56Z</time>
      </trkpt>
      <trkpt lat="43.60159" lon="6.94101">
        <ele>137</ele>
        <time>2012-03-10T10:50:08Z</time>
      </trkpt>
      <trkpt lat="43.60148" lon="6.94115">
        <ele>137.8</ele>
        <time>2012-03-10T10:50:17Z</time>
      </trkpt>
      <trkpt lat="43.60137" lon="6.94127">
        <ele>149.3</ele>
        <time>2012-03-10T10:50:29Z</time>
      </trkpt>
      <trkpt lat="43.60123" lon="6.94123">
        <ele>143.6</ele>
        <time>2012-03-10T10:50:42Z</time>
      </trkpt>
      <trkpt lat="43.6011" lon="6.94112">
        <ele>146.6</ele>
        <time>2012-03-10T10:50:54Z</time>
      </trkpt>
      <trkpt lat="43.60096" lon="6.94109">
        <ele>151.8</ele>
        <time>2012-03-10T10:51:03Z</time>
      </trkpt>
      <trkpt lat="43.60085" lon="6.94121">
        <ele>152.8</ele>
        <time>2012-03-10T10:51:15Z</time>
      </trkpt>
      <trkpt lat="43.60075" lon="6.94138">
        <ele>159.5</ele>
        <time>2012-03-10T10:51:25Z</time>
      </trkpt>
      <trkpt lat="43.60066" lon="6.94154">
        <ele>155.2</ele>
        <time>2012-03-10T10:51:34Z</time>
      </trkpt>
      <trkpt lat="43.60054" lon="6.94167">
        <ele>152.2</ele>
        <time>2012-03-10T10:51:44Z</time>
      </trkpt>
      <trkpt lat="43.60043" lon="6.94181">
        <ele>154.6</ele>
        <time>2012-03-10T10:51:53Z</time>
      </trkpt>
      <trkpt lat="43.60035" lon="6.94197">
        <ele>153.2</ele>
        <time>2012-03-10T10:51:59Z</time>
      </trkpt>
      <trkpt lat="43.60027" lon="6.94215">
        <ele>154.9</ele>
        <time>2012-03-10T10:52:05Z</time>
      </trkpt>
      <trkpt lat="43.60019" lon="6.94233">
        <ele>154.5</ele>
        <time>2012-03-10T10:52:11Z</time>
      </trkpt>
      <trkpt lat="43.60012" lon="6.94253">
        <ele>155.2</ele>
        <time>2012-03-10T10:52:16Z</time>
      </trkpt>
      <trkpt lat="43.60007" lon="6.94294">
        <ele>144.9</ele>
        <time>2012-03-10T10:52:26Z</time>
      </trkpt>
      <trkpt lat="43.60017" lon="6.9431">
        <ele>146.4</ele>
        <time>2012-03-10T10:52:44Z</time>
      </trkpt>
      <trkpt lat="43.60027" lon="6.94325">
        <ele>140.4</ele>
        <time>2012-03-10T10:52:50Z</time>
      </trkpt>
      <trkpt lat="43.60034" lon="6.94342">
        <ele>143.8</ele>
        <time>2012-03-10T10:53:03Z</time>
      </trkpt>
      <trkpt lat="43.60038" lon="6.94362">
        <ele>144.2</ele>
        <time>2012-03-10T10:53:12Z</time>
      </trkpt>
      <trkpt lat="43.60037" lon="6.94381">
        <ele>145.6</ele>
        <time>2012-03-10T10:53:21Z</time>
      </trkpt>
      <trkpt lat="43.60037" lon="6.94403">
        <ele>143.7</ele>
        <time>2012-03-10T10:54:03Z</time>
      </trkpt>
      <trkpt lat="43.60022" lon="6.94411">
        <ele>148.5</ele>
        <time>2012-03-10T10:55:07Z</time>
      </trkpt>
      <trkpt lat="43.60008" lon="6.94415">
        <ele>148.7</ele>
        <time>2012-03-10T10:55:13Z</time>
      </trkpt>
      <trkpt lat="43.59992" lon="6.94417">
        <ele>149.6</ele>
        <time>2012-03-10T10:55:18Z</time>
      </trkpt>
      <trkpt lat="43.59961" lon="6.94419">
        <ele>150.3</ele>
        <time>2012-03-10T10:55:25Z</time>
      </trkpt>
      <trkpt lat="43.59938" lon="6.9444">
        <ele>147.4</ele>
        <time>2012-03-10T10:55:34Z</time>
      </trkpt>
      <trkpt lat="43.59926" lon="6.94454">
        <ele>146.7</ele>
        <time>2012-03-10T10:55:39Z</time>
      </trkpt>
      <trkpt lat="43.59911" lon="6.94455">
        <ele>146.1</ele>
        <time>2012-03-10T10:55:46Z</time>
      </trkpt>
      <trkpt lat="43.59899" lon="6.9444">
        <ele>147.8</ele>
        <time>2012-03-10T10:55:52Z</time>
      </trkpt>
      <trkpt lat="43.59878" lon="6.94415">
        <ele>150.8</ele>
        <time>2012-03-10T10:56:01Z</time>
      </trkpt>
      <trkpt lat="43.59866" lon="6.94406">
        <ele>152.5</ele>
        <time>2012-03-10T10:56:08Z</time>
      </trkpt>
      <trkpt lat="43.59851" lon="6.94407">
        <ele>151.6</ele>
        <time>2012-03-10T10:56:16Z</time>
      </trkpt>
      <trkpt lat="43.59837" lon="6.94406">
        <ele>154</ele>
        <time>2012-03-10T10:56:21Z</time>
      </trkpt>
      <trkpt lat="43.59822" lon="6.94406">
        <ele>158.2</ele>
        <time>2012-03-10T10:56:27Z</time>
      </trkpt>
      <trkpt lat="43.59809" lon="6.94414">
        <ele>153.9</ele>
        <time>2012-03-10T10:56:33Z</time>
      </trkpt>
      <trkpt lat="43.59795" lon="6.94424">
        <ele>155.4</ele>
        <time>2012-03-10T10:56:39Z</time>
      </trkpt>
      <trkpt lat="43.59782" lon="6.94433">
        <ele>155.8</ele>
        <time>2012-03-10T10:56:44Z</time>
      </trkpt>
      <trkpt lat="43.59768" lon="6.94439">
        <ele>156</ele>
        <time>2012-03-10T10:56:50Z</time>
      </trkpt>
      <trkpt lat="43.59752" lon="6.94438">
        <ele>157.6</ele>
        <time>2012-03-10T10:56:57Z</time>
      </trkpt>
      <trkpt lat="43.59738" lon="6.94426">
        <ele>158.4</ele>
        <time>2012-03-10T10:57:03Z</time>
      </trkpt>
      <trkpt lat="43.59726" lon="6.94417">
        <ele>158.5</ele>
        <time>2012-03-10T10:57:09Z</time>
      </trkpt>
      <trkpt lat="43.59713" lon="6.94411">
        <ele>158.5</ele>
        <time>2012-03-10T10:57:15Z</time>
      </trkpt>
      <trkpt lat="43.597" lon="6.94402">
        <ele>161.3</ele>
        <time>2012-03-10T10:57:21Z</time>
      </trkpt>
      <trkpt lat="43.59688" lon="6.94393">
        <ele>164.4</ele>
        <time>2012-03-10T10:57:27Z</time>
      </trkpt>
      <trkpt lat="43.59675" lon="6.94389">
        <ele>165.8</ele>
        <time>2012-03-10T10:57:33Z</time>
      </trkpt>
      <trkpt lat="43.59659" lon="6.94391">
        <ele>163.8</ele>
        <time>2012-03-10T10:57:40Z</time>
      </trkpt>
      <trkpt lat="43.59645" lon="6.94391">
        <ele>164.2</ele>
        <time>2012-03-10T10:57:45Z</time>
      </trkpt>
      <trkpt lat="43.59628" lon="6.94392">
        <ele>165.2</ele>
        <time>2012-03-10T10:57:51Z</time>
      </trkpt>
      <trkpt lat="43.59613" lon="6.94397">
        <ele>167.2</ele>
        <time>2012-03-10T11:03:14Z</time>
      </trkpt>
      <trkpt lat="43.59598" lon="6.94403">
        <ele>163.6</ele>
        <time>2012-03-10T11:03:19Z</time>
      </trkpt>
      <trkpt lat="43.59584" lon="6.94402">
        <ele>161.5</ele>
        <time>2012-03-10T11:03:23Z</time>
      </trkpt>
      <trkpt lat="43.59569" lon="6.94397">
        <ele>155.6</ele>
        <time>2012-03-10T11:03:28Z</time>
      </trkpt>
      <trkpt lat="43.59556" lon="6.94395">
        <ele>154.7</ele>
        <time>2012-03-10T11:03:35Z</time>
      </trkpt>
      <trkpt lat="43.5954" lon="6.94397">
        <ele>146.8</ele>
        <time>2012-03-10T11:03:44Z</time>
      </trkpt>
      <trkpt lat="43.59526" lon="6.94395">
        <ele>149.9</ele>
        <time>2012-03-10T11:03:49Z</time>
      </trkpt>
      <trkpt lat="43.595" lon="6.94382">
        <ele>146.6</ele>
        <time>2012-03-10T11:03:59Z</time>
      </trkpt>
      <trkpt lat="43.59485" lon="6.94386">
        <ele>146.8</ele>
        <time>2012-03-10T11:04:05Z</time>
      </trkpt>
      <trkpt lat="43.59471" lon="6.94393">
        <ele>146.3</ele>
        <time>2012-03-10T11:05:01Z</time>
      </trkpt>
      <trkpt lat="43.59458" lon="6.94406">
        <ele>144.8</ele>
        <time>2012-03-10T11:05:07Z</time>
      </trkpt>
      <trkpt lat="43.59447" lon="6.94422">
        <ele>141.8</ele>
        <time>2012-03-10T11:05:12Z</time>
      </trkpt>
      <trkpt lat="43.59433" lon="6.94426">
        <ele>141.4</ele>
        <time>2012-03-10T11:05:17Z</time>
      </trkpt>
      <trkpt lat="43.59423" lon="6.94441">
        <ele>137.2</ele>
        <time>2012-03-10T11:05:24Z</time>
      </trkpt>
      <trkpt lat="43.5941" lon="6.94448">
        <ele>137.2</ele>
        <time>2012-03-10T11:05:29Z</time>
      </trkpt>
      <trkpt lat="43.59396" lon="6.94458">
        <ele>141.2</ele>
        <time>2012-03-10T11:05:35Z</time>
      </trkpt>
      <trkpt lat="43.59383" lon="6.94469">
        <ele>139.3</ele>
        <time>2012-03-10T11:05:40Z</time>
      </trkpt>
      <trkpt lat="43.59367" lon="6.94474">
        <ele>142.7</ele>
        <time>2012-03-10T11:05:46Z</time>
      </trkpt>
      <trkpt lat="43.59353" lon="6.94471">
        <ele>141.7</ele>
        <time>2012-03-10T11:05:53Z</time>
      </trkpt>
      <trkpt lat="43.59339" lon="6.94473">
        <ele>146</ele>
        <time>2012-03-10T11:06:01Z</time>
      </trkpt>
      <trkpt lat="43.59326" lon="6.94478">
        <ele>146.4</ele>
        <time>2012-03-10T11:06:10Z</time>
      </trkpt>
      <trkpt lat="43.59311" lon="6.9448">
        <ele>146.2</ele>
        <time>2012-03-10T11:06:19Z</time>
      </trkpt>
      <trkpt lat="43.59297" lon="6.94481">
        <ele>150.3</ele>
        <time>2012-03-10T11:06:29Z</time>
      </trkpt>
      <trkpt lat="43.59283" lon="6.94481">
        <ele>151.8</ele>
        <time>2012-03-10T11:06:40Z</time>
      </trkpt>
      <trkpt lat="43.5927" lon="6.94472">
        <ele>152.5</ele>
        <time>2012-03-10T11:06:49Z</time>
      </trkpt>
      <trkpt lat="43.5926" lon="6.94459">
        <ele>156.8</ele>
        <time>2012-03-10T11:07:00Z</time>
      </trkpt>
      <trkpt lat="43.59246" lon="6.94452">
        <ele>157.5</ele>
        <time>2012-03-10T11:07:10Z</time>
      </trkpt>
      <trkpt lat="43.59232" lon="6.94451">
        <ele>154.1</ele>
        <time>2012-03-10T11:07:17Z</time>
      </trkpt>
      <trkpt lat="43.59218" lon="6.9446">
        <ele>153.6</ele>
        <time>2012-03-10T11:09:19Z</time>
      </trkpt>
      <trkpt lat="43.59208" lon="6.94447">
        <ele>152.1</ele>
        <time>2012-03-10T11:09:57Z</time>
      </trkpt>
      <trkpt lat="43.59209" lon="6.94428">
        <ele>148.9</ele>
        <time>2012-03-10T11:10:45Z</time>
      </trkpt>
      <trkpt lat="43.59212" lon="6.94408">
        <ele>146.8</ele>
        <time>2012-03-10T11:10:53Z</time>
      </trkpt>
      <trkpt lat="43.59224" lon="6.94399">
        <ele>144.3</ele>
        <time>2012-03-10T11:11:00Z</time>
      </trkpt>
      <trkpt lat="43.59215" lon="6.94385">
        <ele>139.9</ele>
        <time>2012-03-10T11:12:59Z</time>
      </trkpt>
      <trkpt lat="43.59201" lon="6.94381">
        <ele>138.8</ele>
        <time>2012-03-10T11:13:59Z</time>
      </trkpt>
      <trkpt lat="43.59188" lon="6.94378">
        <ele>130.2</ele>
        <time>2012-03-10T11:16:11Z</time>
      </trkpt>
      <trkpt lat="43.59175" lon="6.94384">
        <ele>131.8</ele>
        <time>2012-03-10T11:16:25Z</time>
      </trkpt>
      <trkpt lat="43.59161" lon="6.94389">
        <ele>129.9</ele>
        <time>2012-03-10T11:16:32Z</time>
      </trkpt>
      <trkpt lat="43.59161" lon="6.94368">
        <ele>130.8</ele>
        <time>2012-03-10T11:16:39Z</time>
      </trkpt>
      <trkpt lat="43.59168" lon="6.94349">
        <ele>127.3</ele>
        <time>2012-03-10T11:16:45Z</time>
      </trkpt>
      <trkpt lat="43.59177" lon="6.94334">
        <ele>122.4</ele>
        <time>2012-03-10T11:16:50Z</time>
      </trkpt>
      <trkpt lat="43.59189" lon="6.94325">
        <ele>121.1</ele>
        <time>2012-03-10T11:16:56Z</time>
      </trkpt>
      <trkpt lat="43.59206" lon="6.9432">
        <ele>125</ele>
        <time>2012-03-10T11:17:04Z</time>
      </trkpt>
      <trkpt lat="43.5922" lon="6.94322">
        <ele>113.8</ele>
        <time>2012-03-10T11:17:33Z</time>
      </trkpt>
      <trkpt lat="43.59234" lon="6.94323">
        <ele>119.4</ele>
        <time>2012-03-10T11:19:57Z</time>
      </trkpt>
      <trkpt lat="43.59222" lon="6.94306">
        <ele>109.2</ele>
        <time>2012-03-10T11:22:49Z</time>
      </trkpt>
      <trkpt lat="43.5921" lon="6.94296">
        <ele>109.3</ele>
        <time>2012-03-10T11:22:58Z</time>
      </trkpt>
      <trkpt lat="43.59199" lon="6.94285">
        <ele>106.5</ele>
        <time>2012-03-10T11:24:17Z</time>
      </trkpt>
      <trkpt lat="43.59186" lon="6.94279">
        <ele>106</ele>
        <time>2012-03-10T11:24:25Z</time>
      </trkpt>
      <trkpt lat="43.59171" lon="6.94278">
        <ele>102.4</ele>
        <time>2012-03-10T11:27:02Z</time>
      </trkpt>
      <trkpt lat="43.59158" lon="6.9428">
        <ele>98.9</ele>
        <time>2012-03-10T11:27:12Z</time>
      </trkpt>
      <trkpt lat="43.59144" lon="6.94283">
        <ele>100.9</ele>
        <time>2012-03-10T11:27:35Z</time>
      </trkpt>
      <trkpt lat="43.59131" lon="6.94278">
        <ele>95.7</ele>
        <time>2012-03-10T11:29:58Z</time>
      </trkpt>
      <trkpt lat="43.59118" lon="6.94283">
        <ele>94.3</ele>
        <time>2012-03-10T11:30:17Z</time>
      </trkpt>
      <trkpt lat="43.59102" lon="6.94287">
        <ele>96.3</ele>
        <time>2012-03-10T11:32:17Z</time>
      </trkpt>
      <trkpt lat="43.59089" lon="6.94292">
        <ele>89.2</ele>
        <time>2012-03-10T11:34:10Z</time>
      </trkpt>
      <trkpt lat="43.59079" lon="6.94307">
        <ele>89.6</ele>
        <time>2012-03-10T11:39:09Z</time>
      </trkpt>
      <trkpt lat="43.59069" lon="6.9432">
        <ele>86.4</ele>
        <time>2012-03-10T11:39:14Z</time>
      </trkpt>
      <trkpt lat="43.59061" lon="6.94336">
        <ele>88.9</ele>
        <time>2012-03-10T11:40:14Z</time>
      </trkpt>
      <trkpt lat="43.59046" lon="6.94334">
        <ele>87.1</ele>
        <time>2012-03-10T11:41:01Z</time>
      </trkpt>
      <trkpt lat="43.59031" lon="6.94334">
        <ele>82.2</ele>
        <time>2012-03-10T11:41:51Z</time>
      </trkpt>
      <trkpt lat="43.59018" lon="6.94342">
        <ele>76</ele>
        <time>2012-03-10T11:42:07Z</time>
      </trkpt>
      <trkpt lat="43.59007" lon="6.94354">
        <ele>77</ele>
        <time>2012-03-10T11:42:15Z</time>
      </trkpt>
      <trkpt lat="43.59007" lon="6.94332">
        <ele>69.1</ele>
        <time>2012-03-10T11:43:45Z</time>
      </trkpt>
      <trkpt lat="43.59014" lon="6.94316">
        <ele>64.6</ele>
        <time>2012-03-10T11:44:42Z</time>
      </trkpt>
      <trkpt lat="43.59026" lon="6.94306">
        <ele>68.6</ele>
        <time>2012-03-10T11:44:49Z</time>
      </trkpt>
      <trkpt lat="43.59036" lon="6.9429">
        <ele>70.6</ele>
        <time>2012-03-10T11:45:33Z</time>
      </trkpt>
      <trkpt lat="43.59042" lon="6.94273">
        <ele>72.3</ele>
        <time>2012-03-10T11:45:40Z</time>
      </trkpt>
      <trkpt lat="43.59047" lon="6.9425">
        <ele>68.1</ele>
        <time>2012-03-10T11:45:46Z</time>
      </trkpt>
      <trkpt lat="43.59055" lon="6.94233">
        <ele>64.6</ele>
        <time>2012-03-10T11:45:51Z</time>
      </trkpt>
      <trkpt lat="43.59064" lon="6.94219">
        <ele>55</ele>
        <time>2012-03-10T11:45:58Z</time>
      </trkpt>
      <trkpt lat="43.59076" lon="6.9421">
        <ele>53.6</ele>
        <time>2012-03-10T11:46:03Z</time>
      </trkpt>
      <trkpt lat="43.59088" lon="6.94199">
        <ele>57.8</ele>
        <time>2012-03-10T11:48:32Z</time>
      </trkpt>
      <trkpt lat="43.59102" lon="6.9419">
        <ele>55.4</ele>
        <time>2012-03-10T11:48:39Z</time>
      </trkpt>
      <trkpt lat="43.59112" lon="6.94175">
        <ele>55.9</ele>
        <time>2012-03-10T11:49:16Z</time>
      </trkpt>
      <trkpt lat="43.59125" lon="6.94166">
        <ele>49</ele>
        <time>2012-03-10T11:49:22Z</time>
      </trkpt>
      <trkpt lat="43.59135" lon="6.94153">
        <ele>44.8</ele>
        <time>2012-03-10T11:49:31Z</time>
      </trkpt>
      <trkpt lat="43.59137" lon="6.94133">
        <ele>35.7</ele>
        <time>2012-03-10T11:50:19Z</time>
      </trkpt>
      <trkpt lat="43.59125" lon="6.94124">
        <ele>35.7</ele>
        <time>2012-03-10T11:51:10Z</time>
      </trkpt>
      <trkpt lat="43.59112" lon="6.94116">
        <ele>30.3</ele>
        <time>2012-03-10T11:51:15Z</time>
      </trkpt>
      <trkpt lat="43.59098" lon="6.9411">
        <ele>31.4</ele>
        <time>2012-03-10T11:51:19Z</time>
      </trkpt>
      <trkpt lat="43.59069" lon="6.94096">
        <ele>28</ele>
        <time>2012-03-10T11:51:25Z</time>
      </trkpt>
      <trkpt lat="43.59035" lon="6.94077">
        <ele>28.1</ele>
        <time>2012-03-10T11:51:31Z</time>
      </trkpt>
      <trkpt lat="43.58999" lon="6.94058">
        <ele>20.3</ele>
        <time>2012-03-10T11:51:37Z</time>
      </trkpt>
      <trkpt lat="43.58964" lon="6.94037">
        <ele>21</ele>
        <time>2012-03-10T11:51:43Z</time>
      </trkpt>
      <trkpt lat="43.58934" lon="6.94021">
        <ele>24.2</ele>
        <time>2012-03-10T11:51:48Z</time>
      </trkpt>
      <trkpt lat="43.58905" lon="6.94001">
        <ele>20.5</ele>
        <time>2012-03-10T11:51:55Z</time>
      </trkpt>
      <trkpt lat="43.58878" lon="6.93979">
        <ele>16.5</ele>
        <time>2012-03-10T11:52:02Z</time>
      </trkpt>
      <trkpt lat="43.58859" lon="6.93946">
        <ele>20.3</ele>
        <time>2012-03-10T11:52:10Z</time>
      </trkpt>
      <trkpt lat="43.58843" lon="6.93951">
        <ele>16.2</ele>
        <time>2012-03-10T11:52:15Z</time>
      </trkpt>
      <trkpt lat="43.58832" lon="6.93967">
        <ele>16.8</ele>
        <time>2012-03-10T11:52:21Z</time>
      </trkpt>
      <trkpt lat="43.58822" lon="6.93984">
        <ele>16.4</ele>
        <time>2012-03-10T11:52:26Z</time>
      </trkpt>
      <trkpt lat="43.58808" lon="6.93983">
        <ele>18.4</ele>
        <time>2012-03-10T11:52:34Z</time>
      </trkpt>
      <trkpt lat="43.5878" lon="6.93962">
        <ele>16.9</ele>
        <time>2012-03-10T11:52:41Z</time>
      </trkpt>
      <trkpt lat="43.58753" lon="6.93946">
        <ele>16.1</ele>
        <time>2012-03-10T11:52:47Z</time>
      </trkpt>
      <trkpt lat="43.58738" lon="6.93937">
        <ele>13.2</ele>
        <time>2012-03-10T11:52:51Z</time>
      </trkpt>
      <trkpt lat="43.5874" lon="6.93917">
        <ele>10.5</ele>
        <time>2012-03-10T11:53:53Z</time>
      </trkpt>
      <trkpt lat="43.58753" lon="6.93907">
        <ele>11.1</ele>
        <time>2012-03-10T11:53:59Z</time>
      </trkpt>
      <trkpt lat="43.58765" lon="6.93898">
        <ele>11.2</ele>
        <time>2012-03-10T11:54:07Z</time>
      </trkpt>
      <trkpt lat="43.58777" lon="6.93886">
        <ele>18.7</ele>
        <time>2012-03-10T11:54:12Z</time>
      </trkpt>
      <trkpt lat="43.58803" lon="6.93863">
        <ele>20.4</ele>
        <time>2012-03-10T11:54:20Z</time>
      </trkpt>
      <trkpt lat="43.58821" lon="6.93831">
        <ele>19.4</ele>
        <time>2012-03-10T11:54:26Z</time>
      </trkpt>
      <trkpt lat="43.58836" lon="6.93792">
        <ele>19.3</ele>
        <time>2012-03-10T11:54:33Z</time>
      </trkpt>
      <trkpt lat="43.58853" lon="6.93762">
        <ele>15.9</ele>
        <time>2012-03-10T11:54:39Z</time>
      </trkpt>
      <trkpt lat="43.58878" lon="6.9373">
        <ele>14.9</ele>
        <time>2012-03-10T11:54:47Z</time>
      </trkpt>
      <trkpt lat="43.5889" lon="6.93713">
        <ele>21.6</ele>
        <time>2012-03-10T11:54:51Z</time>
      </trkpt>
      <trkpt lat="43.58914" lon="6.93685">
        <ele>22.2</ele>
        <time>2012-03-10T11:54:57Z</time>
      </trkpt>
      <trkpt lat="43.58938" lon="6.93652">
        <ele>23.4</ele>
        <time>2012-03-10T11:55:03Z</time>
      </trkpt>
      <trkpt lat="43.58959" lon="6.93621">
        <ele>22.1</ele>
        <time>2012-03-10T11:55:09Z</time>
      </trkpt>
      <trkpt lat="43.58979" lon="6.93587">
        <ele>21</ele>
        <time>2012-03-10T11:55:15Z</time>
      </trkpt>
      <trkpt lat="43.58998" lon="6.93549">
        <ele>16.6</ele>
        <time>2012-03-10T11:55:22Z</time>
      </trkpt>
      <trkpt lat="43.59016" lon="6.93512">
        <ele>13</ele>
        <time>2012-03-10T11:55:28Z</time>
      </trkpt>
      <trkpt lat="43.59032" lon="6.93479">
        <ele>18</ele>
        <time>2012-03-10T11:55:34Z</time>
      </trkpt>
      <trkpt lat="43.59051" lon="6.9344">
        <ele>19.1</ele>
        <time>2012-03-10T11:55:40Z</time>
      </trkpt>
      <trkpt lat="43.59067" lon="6.93402">
        <ele>12.2</ele>
        <time>2012-03-10T11:55:46Z</time>
      </trkpt>
      <trkpt lat="43.59085" lon="6.93367">
        <ele>16.4</ele>
        <time>2012-03-10T11:55:52Z</time>
      </trkpt>
      <trkpt lat="43.59106" lon="6.93335">
        <ele>19.1</ele>
        <time>2012-03-10T11:55:58Z</time>
      </trkpt>
      <trkpt lat="43.59128" lon="6.93299">
        <ele>17.1</ele>
        <time>2012-03-10T11:56:04Z</time>
      </trkpt>
      <trkpt lat="43.59145" lon="6.93262">
        <ele>20.6</ele>
        <time>2012-03-10T11:56:10Z</time>
      </trkpt>
      <trkpt lat="43.5916" lon="6.93222">
        <ele>18</ele>
        <time>2012-03-10T11:56:16Z</time>
      </trkpt>
      <trkpt lat="43.59176" lon="6.93177">
        <ele>14.3</ele>
        <time>2012-03-10T11:56:22Z</time>
      </trkpt>
      <trkpt lat="43.59201" lon="6.93125">
        <ele>15</ele>
        <time>2012-03-10T11:56:29Z</time>
      </trkpt>
      <trkpt lat="43.59228" lon="6.93095">
        <ele>20.1</ele>
        <time>2012-03-10T11:56:35Z</time>
      </trkpt>
      <trkpt lat="43.59255" lon="6.93062">
        <ele>24.5</ele>
        <time>2012-03-10T11:56:41Z</time>
      </trkpt>
      <trkpt lat="43.5928" lon="6.93039">
        <ele>20.4</ele>
        <time>2012-03-10T11:56:47Z</time>
      </trkpt>
      <trkpt lat="43.59302" lon="6.93007">
        <ele>26.7</ele>
        <time>2012-03-10T11:56:53Z</time>
      </trkpt>
      <trkpt lat="43.59321" lon="6.92974">
        <ele>23.4</ele>
        <time>2012-03-10T11:57:00Z</time>
      </trkpt>
      <trkpt lat="43.59336" lon="6.92976">
        <ele>19</ele>
        <time>2012-03-10T11:59:52Z</time>
      </trkpt>
      <trkpt lat="43.59359" lon="6.93003">
        <ele>25.2</ele>
        <time>2012-03-10T12:00:00Z</time>
      </trkpt>
      <trkpt lat="43.59373" lon="6.93013">
        <ele>23.7</ele>
        <time>2012-03-10T12:00:05Z</time>
      </trkpt>
      <trkpt lat="43.59385" lon="6.93023">
        <ele>23.2</ele>
        <time>2012-03-10T12:00:09Z</time>
      </trkpt>
      <trkpt lat="43.59409" lon="6.9305">
        <ele>18.4</ele>
        <time>2012-03-10T12:00:16Z</time>
      </trkpt>
      <trkpt lat="43.59431" lon="6.93079">
        <ele>18.9</ele>
        <time>2012-03-10T12:00:23Z</time>
      </trkpt>
      <trkpt lat="43.59454" lon="6.93113">
        <ele>13.4</ele>
        <time>2012-03-10T12:00:30Z</time>
      </trkpt>
      <trkpt lat="43.59466" lon="6.9313">
        <ele>15.1</ele>
        <time>2012-03-10T12:00:34Z</time>
      </trkpt>
      <trkpt lat="43.59491" lon="6.93157">
        <ele>19.2</ele>
        <time>2012-03-10T12:00:40Z</time>
      </trkpt>
      <trkpt lat="43.59507" lon="6.93157">
        <ele>24</ele>
        <time>2012-03-10T12:00:44Z</time>
      </trkpt>
      <trkpt lat="43.59537" lon="6.93142">
        <ele>29.5</ele>
        <time>2012-03-10T12:00:51Z</time>
      </trkpt>
      <trkpt lat="43.59566" lon="6.93124">
        <ele>30.1</ele>
        <time>2012-03-10T12:00:57Z</time>
      </trkpt>
      <trkpt lat="43.59599" lon="6.93112">
        <ele>25.3</ele>
        <time>2012-03-10T12:01:03Z</time>
      </trkpt>
      <trkpt lat="43.59627" lon="6.93109">
        <ele>26.6</ele>
        <time>2012-03-10T12:01:09Z</time>
      </trkpt>
      <trkpt lat="43.59659" lon="6.93115">
        <ele>27.3</ele>
        <time>2012-03-10T12:01:15Z</time>
      </trkpt>
      <trkpt lat="43.59689" lon="6.93123">
        <ele>23.9</ele>
        <time>2012-03-10T12:01:21Z</time>
      </trkpt>
      <trkpt lat="43.59717" lon="6.93129">
        <ele>23.9</ele>
        <time>2012-03-10T12:01:27Z</time>
      </trkpt>
      <trkpt lat="43.59744" lon="6.93136">
        <ele>27.8</ele>
        <time>2012-03-10T12:01:33Z</time>
      </trkpt>
      <trkpt lat="43.59772" lon="6.93143">
        <ele>32.7</ele>
        <time>2012-03-10T12:01:39Z</time>
      </trkpt>
      <trkpt lat="43.59804" lon="6.93161">
        <ele>27.4</ele>
        <time>2012-03-10T12:01:45Z</time>
      </trkpt>
      <trkpt lat="43.59836" lon="6.93177">
        <ele>27.6</ele>
        <time>2012-03-10T12:01:51Z</time>
      </trkpt>
      <trkpt lat="43.59868" lon="6.93188">
        <ele>27.6</ele>
        <time>2012-03-10T12:01:57Z</time>
      </trkpt>
      <trkpt lat="43.59899" lon="6.93192">
        <ele>23.9</ele>
        <time>2012-03-10T12:02:03Z</time>
      </trkpt>
      <trkpt lat="43.59928" lon="6.93197">
        <ele>24.6</ele>
        <time>2012-03-10T12:02:09Z</time>
      </trkpt>
      <trkpt lat="43.59963" lon="6.93202">
        <ele>23.4</ele>
        <time>2012-03-10T12:02:16Z</time>
      </trkpt>
      <trkpt lat="43.59992" lon="6.93198">
        <ele>21</ele>
        <time>2012-03-10T12:02:22Z</time>
      </trkpt>
      <trkpt lat="43.60018" lon="6.93178">
        <ele>26</ele>
        <time>2012-03-10T12:02:28Z</time>
      </trkpt>
      <trkpt lat="43.60046" lon="6.93157">
        <ele>32.1</ele>
        <time>2012-03-10T12:02:35Z</time>
      </trkpt>
      <trkpt lat="43.60074" lon="6.93142">
        <ele>35.7</ele>
        <time>2012-03-10T12:02:42Z</time>
      </trkpt>
      <trkpt lat="43.60104" lon="6.93133">
        <ele>32.5</ele>
        <time>2012-03-10T12:02:49Z</time>
      </trkpt>
      <trkpt lat="43.60131" lon="6.9315">
        <ele>27.1</ele>
        <time>2012-03-10T12:02:58Z</time>
      </trkpt>
      <trkpt lat="43.60145" lon="6.93161">
        <ele>32.7</ele>
        <time>2012-03-10T12:03:04Z</time>
      </trkpt>
      <trkpt lat="43.6017" lon="6.93185">
        <ele>32.1</ele>
        <time>2012-03-10T12:03:13Z</time>
      </trkpt>
      <trkpt lat="43.60185" lon="6.93193">
        <ele>31.4</ele>
        <time>2012-03-10T12:03:18Z</time>
      </trkpt>
      <trkpt lat="43.60211" lon="6.93204">
        <ele>29.5</ele>
        <time>2012-03-10T12:03:27Z</time>
      </trkpt>
      <trkpt lat="43.60222" lon="6.93218">
        <ele>37.1</ele>
        <time>2012-03-10T12:03:33Z</time>
      </trkpt>
      <trkpt lat="43.60226" lon="6.93239">
        <ele>40.3</ele>
        <time>2012-03-10T12:03:39Z</time>
      </trkpt>
      <trkpt lat="43.60222" lon="6.93258">
        <ele>36.7</ele>
        <time>2012-03-10T12:03:45Z</time>
      </trkpt>
      <trkpt lat="43.60219" lon="6.93276">
        <ele>35.4</ele>
        <time>2012-03-10T12:03:50Z</time>
      </trkpt>
      <trkpt lat="43.60223" lon="6.93295">
        <ele>40.5</ele>
        <time>2012-03-10T12:03:56Z</time>
      </trkpt>
      <trkpt lat="43.6023" lon="6.93314">
        <ele>37.9</ele>
        <time>2012-03-10T12:04:02Z</time>
      </trkpt>
      <trkpt lat="43.60239" lon="6.93328">
        <ele>36.5</ele>
        <time>2012-03-10T12:04:07Z</time>
      </trkpt>
      <trkpt lat="43.60252" lon="6.93339">
        <ele>41</ele>
        <time>2012-03-10T12:04:13Z</time>
      </trkpt>
      <trkpt lat="43.60265" lon="6.93345">
        <ele>37.4</ele>
        <time>2012-03-10T12:04:18Z</time>
      </trkpt>
      <trkpt lat="43.60279" lon="6.93347">
        <ele>44</ele>
        <time>2012-03-10T12:04:23Z</time>
      </trkpt>
      <trkpt lat="43.60292" lon="6.93351">
        <ele>41.3</ele>
        <time>2012-03-10T12:04:28Z</time>
      </trkpt>
      <trkpt lat="43.60305" lon="6.93355">
        <ele>45.6</ele>
        <time>2012-03-10T12:04:38Z</time>
      </trkpt>
      <trkpt lat="43.60319" lon="6.93363">
        <ele>44</ele>
        <time>2012-03-10T12:04:44Z</time>
      </trkpt>
      <trkpt lat="43.60343" lon="6.93386">
        <ele>44.5</ele>
        <time>2012-03-10T12:04:51Z</time>
      </trkpt>
      <trkpt lat="43.60373" lon="6.93405">
        <ele>47.6</ele>
        <time>2012-03-10T12:04:59Z</time>
      </trkpt>
      <trkpt lat="43.60402" lon="6.93411">
        <ele>48.3</ele>
        <time>2012-03-10T12:05:07Z</time>
      </trkpt>
      <trkpt lat="43.60417" lon="6.93424">
        <ele>41.7</ele>
        <time>2012-03-10T12:05:12Z</time>
      </trkpt>
      <trkpt lat="43.60445" lon="6.93434">
        <ele>46.1</ele>
        <time>2012-03-10T12:05:18Z</time>
      </trkpt>
      <trkpt lat="43.60461" lon="6.93441">
        <ele>50.9</ele>
        <time>2012-03-10T12:05:22Z</time>
      </trkpt>
      <trkpt lat="43.60492" lon="6.9346">
        <ele>53.5</ele>
        <time>2012-03-10T12:05:30Z</time>
      </trkpt>
      <trkpt lat="43.60518" lon="6.93476">
        <ele>46.9</ele>
        <time>2012-03-10T12:05:36Z</time>
      </trkpt>
      <trkpt lat="43.60547" lon="6.93496">
        <ele>49.4</ele>
        <time>2012-03-10T12:05:43Z</time>
      </trkpt>
      <trkpt lat="43.60573" lon="6.93519">
        <ele>48.6</ele>
        <time>2012-03-10T12:05:50Z</time>
      </trkpt>
      <trkpt lat="43.606" lon="6.93535">
        <ele>51.1</ele>
        <time>2012-03-10T12:05:56Z</time>
      </trkpt>
      <trkpt lat="43.60625" lon="6.93565">
        <ele>52.3</ele>
        <time>2012-03-10T12:06:02Z</time>
      </trkpt>
      <trkpt lat="43.60647" lon="6.93598">
        <ele>53.3</ele>
        <time>2012-03-10T12:06:09Z</time>
      </trkpt>
      <trkpt lat="43.60669" lon="6.93624">
        <ele>48.5</ele>
        <time>2012-03-10T12:06:15Z</time>
      </trkpt>
      <trkpt lat="43.60698" lon="6.93647">
        <ele>49.7</ele>
        <time>2012-03-10T12:06:21Z</time>
      </trkpt>
      <trkpt lat="43.6073" lon="6.93675">
        <ele>45.3</ele>
        <time>2012-03-10T12:06:27Z</time>
      </trkpt>
      <trkpt lat="43.60762" lon="6.937">
        <ele>43.8</ele>
        <time>2012-03-10T12:06:33Z</time>
      </trkpt>
      <trkpt lat="43.608" lon="6.93738">
        <ele>48.2</ele>
        <time>2012-03-10T12:06:40Z</time>
      </trkpt>
      <trkpt lat="43.60821" lon="6.93765">
        <ele>45.1</ele>
        <time>2012-03-10T12:06:44Z</time>
      </trkpt>
      <trkpt lat="43.60842" lon="6.93802">
        <ele>44.9</ele>
        <time>2012-03-10T12:06:49Z</time>
      </trkpt>
      <trkpt lat="43.60868" lon="6.93843">
        <ele>47.5</ele>
        <time>2012-03-10T12:06:55Z</time>
      </trkpt>
      <trkpt lat="43.60883" lon="6.93898">
        <ele>48.2</ele>
        <time>2012-03-10T12:07:01Z</time>
      </trkpt>
      <trkpt lat="43.60867" lon="6.93936">
        <ele>48.3</ele>
        <time>2012-03-10T12:07:05Z</time>
      </trkpt>
      <trkpt lat="43.60831" lon="6.93978">
        <ele>35.6</ele>
        <time>2012-03-10T12:07:11Z</time>
      </trkpt>
      <trkpt lat="43.60811" lon="6.94016">
        <ele>39.3</ele>
        <time>2012-03-10T12:07:16Z</time>
      </trkpt>
      <trkpt lat="43.60804" lon="6.94055">
        <ele>37.6</ele>
        <time>2012-03-10T12:07:20Z</time>
      </trkpt>
      <trkpt lat="43.60799" lon="6.94107">
        <ele>44.7</ele>
        <time>2012-03-10T12:07:26Z</time>
      </trkpt>
      <trkpt lat="43.60798" lon="6.94155">
        <ele>50.2</ele>
        <time>2012-03-10T12:07:32Z</time>
      </trkpt>
      <trkpt lat="43.60799" lon="6.94203">
        <ele>50.5</ele>
        <time>2012-03-10T12:07:38Z</time>
      </trkpt>
      <trkpt lat="43.60808" lon="6.94242">
        <ele>48</ele>
        <time>2012-03-10T12:07:45Z</time>
      </trkpt>
      <trkpt lat="43.60836" lon="6.9426">
        <ele>55.1</ele>
        <time>2012-03-10T12:07:52Z</time>
      </trkpt>
      <trkpt lat="43.60864" lon="6.94285">
        <ele>62.8</ele>
        <time>2012-03-10T12:07:58Z</time>
      </trkpt>
      <trkpt lat="43.60892" lon="6.94302">
        <ele>70.9</ele>
        <time>2012-03-10T12:08:05Z</time>
      </trkpt>
      <trkpt lat="43.6092" lon="6.9432">
        <ele>76.3</ele>
        <time>2012-03-10T12:08:12Z</time>
      </trkpt>
      <trkpt lat="43.60947" lon="6.94339">
        <ele>79.5</ele>
        <time>2012-03-10T12:08:19Z</time>
      </trkpt>
      <trkpt lat="43.60979" lon="6.94352">
        <ele>70.4</ele>
        <time>2012-03-10T12:08:24Z</time>
      </trkpt>
      <trkpt lat="43.6101" lon="6.94368">
        <ele>66.2</ele>
        <time>2012-03-10T12:08:30Z</time>
      </trkpt>
      <trkpt lat="43.61041" lon="6.94385">
        <ele>71.1</ele>
        <time>2012-03-10T12:08:35Z</time>
      </trkpt>
      <trkpt lat="43.61074" lon="6.94409">
        <ele>72.4</ele>
        <time>2012-03-10T12:08:41Z</time>
      </trkpt>
      <trkpt lat="43.61102" lon="6.94428">
        <ele>68.6</ele>
        <time>2012-03-10T12:08:45Z</time>
      </trkpt>
      <trkpt lat="43.61133" lon="6.94448">
        <ele>67.4</ele>
        <time>2012-03-10T12:08:50Z</time>
      </trkpt>
      <trkpt lat="43.61167" lon="6.94473">
        <ele>72</ele>
        <time>2012-03-10T12:08:56Z</time>
      </trkpt>
      <trkpt lat="43.61199" lon="6.94489">
        <ele>68.3</ele>
        <time>2012-03-10T12:09:01Z</time>
      </trkpt>
      <trkpt lat="43.61229" lon="6.94506">
        <ele>69.2</ele>
        <time>2012-03-10T12:09:06Z</time>
      </trkpt>
      <trkpt lat="43.61263" lon="6.94527">
        <ele>69.8</ele>
        <time>2012-03-10T12:09:12Z</time>
      </trkpt>
      <trkpt lat="43.61295" lon="6.94547">
        <ele>67.8</ele>
        <time>2012-03-10T12:09:18Z</time>
      </trkpt>
      <trkpt lat="43.61323" lon="6.94566">
        <ele>69.8</ele>
        <time>2012-03-10T12:09:24Z</time>
      </trkpt>
      <trkpt lat="43.61351" lon="6.94587">
        <ele>69.1</ele>
        <time>2012-03-10T12:09:30Z</time>
      </trkpt>
      <trkpt lat="43.61381" lon="6.94603">
        <ele>70.3</ele>
        <time>2012-03-10T12:09:38Z</time>
      </trkpt>
      <trkpt lat="43.61407" lon="6.94628">
        <ele>74.8</ele>
        <time>2012-03-10T12:09:46Z</time>
      </trkpt>
      <trkpt lat="43.61412" lon="6.94647">
        <ele>73.7</ele>
        <time>2012-03-10T12:09:50Z</time>
      </trkpt>
      <trkpt lat="43.61407" lon="6.94688">
        <ele>66.4</ele>
        <time>2012-03-10T12:09:56Z</time>
      </trkpt>
      <trkpt lat="43.61396" lon="6.94728">
        <ele>68.2</ele>
        <time>2012-03-10T12:10:03Z</time>
      </trkpt>
      <trkpt lat="43.6138" lon="6.94768">
        <ele>62.5</ele>
        <time>2012-03-10T12:10:11Z</time>
      </trkpt>
      <trkpt lat="43.61375" lon="6.94788">
        <ele>57.9</ele>
        <time>2012-03-10T12:10:15Z</time>
      </trkpt>
      <trkpt lat="43.61372" lon="6.94827">
        <ele>66.6</ele>
        <time>2012-03-10T12:10:22Z</time>
      </trkpt>
      <trkpt lat="43.61376" lon="6.9485">
        <ele>72.2</ele>
        <time>2012-03-10T12:10:27Z</time>
      </trkpt>
      <trkpt lat="43.61394" lon="6.94884">
        <ele>78.9</ele>
        <time>2012-03-10T12:10:33Z</time>
      </trkpt>
      <trkpt lat="43.61421" lon="6.94908">
        <ele>80.9</ele>
        <time>2012-03-10T12:10:39Z</time>
      </trkpt>
      <trkpt lat="43.61447" lon="6.94929">
        <ele>77</ele>
        <time>2012-03-10T12:10:46Z</time>
      </trkpt>
      <trkpt lat="43.61474" lon="6.94954">
        <ele>78.5</ele>
        <time>2012-03-10T12:10:54Z</time>
      </trkpt>
      <trkpt lat="43.61484" lon="6.94969">
        <ele>81.8</ele>
        <time>2012-03-10T12:11:00Z</time>
      </trkpt>
      <trkpt lat="43.61492" lon="6.94987">
        <ele>86.3</ele>
        <time>2012-03-10T12:11:06Z</time>
      </trkpt>
      <trkpt lat="43.615" lon="6.95007">
        <ele>88.5</ele>
        <time>2012-03-10T12:11:10Z</time>
      </trkpt>
      <trkpt lat="43.61508" lon="6.95027">
        <ele>80.8</ele>
        <time>2012-03-10T12:11:15Z</time>
      </trkpt>
      <trkpt lat="43.61521" lon="6.95067">
        <ele>83.4</ele>
        <time>2012-03-10T12:11:23Z</time>
      </trkpt>
      <trkpt lat="43.61535" lon="6.95102">
        <ele>89.8</ele>
        <time>2012-03-10T12:11:30Z</time>
      </trkpt>
      <trkpt lat="43.61542" lon="6.95119">
        <ele>86.7</ele>
        <time>2012-03-10T12:11:34Z</time>
      </trkpt>
      <trkpt lat="43.61542" lon="6.95139">
        <ele>82.9</ele>
        <time>2012-03-10T12:11:39Z</time>
      </trkpt>
      <trkpt lat="43.61554" lon="6.95151">
        <ele>110.7</ele>
        <time>2012-03-10T12:13:47Z</time>
      </trkpt>
      <trkpt lat="43.61539" lon="6.95144">
        <ele>89.7</ele>
        <time>2012-03-10T12:17:12Z</time>
      </trkpt>
      <trkpt lat="43.61526" lon="6.95134">
        <ele>90.6</ele>
        <time>2012-03-10T12:17:18Z</time>
      </trkpt>
      <trkpt lat="43.61514" lon="6.95124">
        <ele>95.8</ele>
        <time>2012-03-10T12:17:35Z</time>
      </trkpt>
      <trkpt lat="43.61513" lon="6.95143">
        <ele>89.6</ele>
        <time>2012-03-10T12:18:07Z</time>
      </trkpt>
      <trkpt lat="43.61535" lon="6.95199">
        <ele>89.6</ele>
        <time>2012-03-10T12:19:54Z</time>
      </trkpt>
      <trkpt lat="43.61502" lon="6.95127">
        <ele>151.1</ele>
        <time>2012-03-10T12:20:19Z</time>
      </trkpt>
      <trkpt lat="43.61502" lon="6.95127">
        <ele>96.9</ele>
        <time>2012-03-10T12:21:20Z</time>
      </trkpt>
    </trkseg>
  </trk>
</gpx>